PWSweather.com
Personal Weather Stations
Station Observations
HVALPSUND
Hvalpsund, FarsoeDK 9640

HvalpsundFarsoeDK 9640

Lat: 56.705311, Lon: 9.203638

Elevation: 5

Station Type: Vantage Pro2

http://hvalpsundvejr.dk

High Low Average
Temperature 65.8°F18.8°C 47.1°F8.4°C 57.8°F14.3°C
Dew Point 55.0°F12.8°C 44.7°F7.1°C 50.4°F10.2°C
Winds 16.0 mph 25.7 kmh Calm Calm 5.0 mph SSE8.0 kmh SSE
Wind Gusts 18.0 mph29.0 kmh -- 7.0 mph11.3 kmh
Humidity 94% 54% 77%
Pressure 30.08 in1018.6 mb 29.97 in1014.9 mb -
Precipitation 0.00 in0.0 mm - -
Hour Temp Dew Point Humidity Winds Wind Gusts Pressure Precip Precip Rate Daily Precip Total
11:50 AM 62.2°F16.8°C 51.9°F11.1°C 69% 12.0 mph WNW19.3 kmh WNW 15.0 mph24.1 kmh 30.06 in1017.9 mb 0.00 in0.0 mm 0.00 in0.0 mm 0.00 in0.0 mm
11:51 AM 60.8°F16.0°C 51.3°F10.7°C 71% 11.0 mph WNW17.7 kmh WNW 13.0 mph20.9 kmh 30.06 in1017.9 mb 0.00 in0.0 mm 0.00 in0.0 mm 0.00 in0.0 mm
11:52 AM 57.8°F14.3°C 50.6°F10.3°C 77% 10.0 mph WNW16.1 kmh WNW 12.0 mph19.3 kmh 30.07 in1018.3 mb 0.00 in0.0 mm 0.00 in0.0 mm 0.00 in0.0 mm
11:53 AM 56.7°F13.7°C 50.3°F10.2°C 79% 7.0 mph W11.3 kmh W 8.0 mph12.9 kmh 30.07 in1018.3 mb 0.00 in0.0 mm 0.00 in0.0 mm 0.00 in0.0 mm
11:54 AM 55.8°F13.2°C 50.7°F10.4°C 83% 6.0 mph W9.7 kmh W 9.0 mph14.5 kmh 30.07 in1018.3 mb 0.00 in0.0 mm 0.00 in0.0 mm 0.00 in0.0 mm
11:55 AM 56.2°F13.4°C 50.8°F10.4°C 82% 7.0 mph W11.3 kmh W 10.0 mph16.1 kmh 30.07 in1018.3 mb 0.00 in0.0 mm 0.00 in0.0 mm 0.00 in0.0 mm
11:56 AM 55.9°F13.3°C 51.1°F10.6°C 84% 9.0 mph W14.5 kmh W 11.0 mph17.7 kmh 30.07 in1018.3 mb 0.00 in0.0 mm 0.00 in0.0 mm 0.00 in0.0 mm
11:57 AM 55.8°F13.2°C 51.4°F10.8°C 85% 6.0 mph W9.7 kmh W 8.0 mph12.9 kmh 30.08 in1018.6 mb 0.00 in0.0 mm 0.00 in0.0 mm 0.00 in0.0 mm
11:58 AM 55.5°F13.1°C 51.1°F10.6°C 85% 5.0 mph W8.0 kmh W 9.0 mph14.5 kmh 30.08 in1018.6 mb 0.00 in0.0 mm 0.00 in0.0 mm 0.00 in0.0 mm
11:59 AM 55.6°F13.1°C 50.5°F10.3°C 83% 4.0 mph WSW6.4 kmh WSW 5.0 mph8.0 kmh 30.08 in1018.6 mb 0.00 in0.0 mm 0.00 in0.0 mm 0.00 in0.0 mm
12:00 PM 55.7°F13.2°C 50.3°F10.2°C 82% 5.0 mph WSW8.0 kmh WSW 7.0 mph11.3 kmh 30.07 in1018.3 mb 0.00 in0.0 mm 0.00 in0.0 mm 0.00 in0.0 mm
12:01 PM 53.5°F11.9°C 49.1°F9.5°C 85% 6.0 mph SW9.7 kmh SW 8.0 mph12.9 kmh 30.07 in1018.3 mb 0.00 in0.0 mm 0.00 in0.0 mm 0.00 in0.0 mm
12:02 PM 54.7°F12.6°C 50.3°F10.2°C 85% 9.0 mph WSW14.5 kmh WSW 10.0 mph16.1 kmh 30.07 in1018.3 mb 0.00 in0.0 mm 0.00 in0.0 mm 0.00 in0.0 mm
12:03 PM 54.4°F12.4°C 50.0°F10.0°C 85% 6.0 mph WSW9.7 kmh WSW 9.0 mph14.5 kmh 30.07 in1018.3 mb 0.00 in0.0 mm 0.00 in0.0 mm 0.00 in0.0 mm
12:04 PM 52.6°F11.4°C 48.2°F9.0°C 85% 6.0 mph SW9.7 kmh SW 8.0 mph12.9 kmh 30.06 in1017.9 mb 0.00 in0.0 mm 0.00 in0.0 mm 0.00 in0.0 mm
12:05 PM 51.7°F10.9°C 47.6°F8.7°C 86% 3.0 mph S4.8 kmh S 5.0 mph8.0 kmh 30.06 in1017.9 mb 0.00 in0.0 mm 0.00 in0.0 mm 0.00 in0.0 mm
12:06 PM 51.8°F11.0°C 48.1°F8.9°C 87% 5.0 mph SW8.0 kmh SW 6.0 mph9.7 kmh 30.05 in1017.6 mb 0.00 in0.0 mm 0.00 in0.0 mm 0.00 in0.0 mm
12:07 PM 51.9°F11.1°C 48.5°F9.2°C 88% 6.0 mph SW9.7 kmh SW 7.0 mph11.3 kmh 30.05 in1017.6 mb 0.00 in0.0 mm 0.00 in0.0 mm 0.00 in0.0 mm
12:08 PM 54.3°F12.4°C 49.6°F9.8°C 84% 6.0 mph SW9.7 kmh SW 7.0 mph11.3 kmh 30.05 in1017.6 mb 0.00 in0.0 mm 0.00 in0.0 mm 0.00 in0.0 mm
12:09 PM 56.4°F13.6°C 50.3°F10.2°C 80% 6.0 mph SW9.7 kmh SW 9.0 mph14.5 kmh 30.05 in1017.6 mb 0.00 in0.0 mm 0.00 in0.0 mm 0.00 in0.0 mm
12:10 PM 57.8°F14.3°C 51.3°F10.7°C 79% 6.0 mph WSW9.7 kmh WSW 8.0 mph12.9 kmh 30.05 in1017.6 mb 0.00 in0.0 mm 0.00 in0.0 mm 0.00 in0.0 mm
12:11 PM 59.2°F15.1°C 50.2°F10.1°C 72% 9.0 mph W14.5 kmh W 10.0 mph16.1 kmh 30.05 in1017.6 mb 0.00 in0.0 mm 0.00 in0.0 mm 0.00 in0.0 mm
12:12 PM 60.1°F15.6°C 50.7°F10.4°C 71% 7.0 mph WNW11.3 kmh WNW 9.0 mph14.5 kmh 30.05 in1017.6 mb 0.00 in0.0 mm 0.00 in0.0 mm 0.00 in0.0 mm
12:13 PM 60.2°F15.7°C 50.0°F10.0°C 69% 4.0 mph WNW6.4 kmh WNW 5.0 mph8.0 kmh 30.05 in1017.6 mb 0.00 in0.0 mm 0.00 in0.0 mm 0.00 in0.0 mm
12:14 PM 62.7°F17.1°C 49.1°F9.5°C 61% 1.0 mph W1.6 kmh W 2.0 mph3.2 kmh 30.05 in1017.6 mb 0.00 in0.0 mm 0.00 in0.0 mm 0.00 in0.0 mm
12:15 PM 61.5°F16.4°C 50.0°F10.0°C 66% 4.0 mph NNE6.4 kmh NNE 4.0 mph6.4 kmh 30.04 in1017.3 mb 0.00 in0.0 mm 0.00 in0.0 mm 0.00 in0.0 mm
12:16 PM 61.5°F16.4°C 50.0°F10.0°C 66% 3.0 mph NNW4.8 kmh NNW 4.0 mph6.4 kmh 30.05 in1017.6 mb 0.00 in0.0 mm 0.00 in0.0 mm 0.00 in0.0 mm
12:17 PM 62.7°F17.1°C 50.8°F10.4°C 65% 2.0 mph NNE3.2 kmh NNE 3.0 mph4.8 kmh 30.04 in1017.3 mb 0.00 in0.0 mm 0.00 in0.0 mm 0.00 in0.0 mm
12:18 PM 62.6°F17.0°C 52.3°F11.3°C 69% 6.0 mph E9.7 kmh E 7.0 mph11.3 kmh 30.01 in1016.3 mb 0.00 in0.0 mm 0.00 in0.0 mm 0.00 in0.0 mm
12:19 PM 62.6°F17.0°C 52.3°F11.3°C 69% 6.0 mph E9.7 kmh E 7.0 mph11.3 kmh 30.01 in1016.3 mb 0.00 in0.0 mm 0.00 in0.0 mm 0.00 in0.0 mm
12:20 PM 63.7°F17.6°C 52.1°F11.2°C 66% 6.1 mph E9.8 kmh E 9.0 mph14.5 kmh 30.01 in1016.3 mb 0.00 in0.0 mm 0.00 in0.0 mm 0.00 in0.0 mm
12:21 PM 63.7°F17.6°C 51.7°F10.9°C 65% 5.1 mph E8.2 kmh E 9.0 mph14.5 kmh 30.01 in1016.3 mb 0.00 in0.0 mm 0.00 in0.0 mm 0.00 in0.0 mm
12:22 PM 63.8°F17.7°C 52.2°F11.2°C 66% 5.3 mph E8.5 kmh E 9.0 mph14.5 kmh 30.00 in1015.9 mb 0.00 in0.0 mm 0.00 in0.0 mm 0.00 in0.0 mm
12:23 PM 63.8°F17.7°C 52.2°F11.2°C 66% 6.9 mph NE11.1 kmh NE 11.0 mph17.7 kmh 30.01 in1016.3 mb 0.00 in0.0 mm 0.00 in0.0 mm 0.00 in0.0 mm
12:24 PM 63.9°F17.7°C 52.3°F11.3°C 66% 6.5 mph ENE10.5 kmh ENE 11.0 mph17.7 kmh 30.01 in1016.3 mb 0.00 in0.0 mm 0.00 in0.0 mm 0.00 in0.0 mm
12:25 PM 63.9°F17.7°C 51.9°F11.1°C 65% 5.5 mph ENE8.9 kmh ENE 8.0 mph12.9 kmh 30.00 in1015.9 mb 0.00 in0.0 mm 0.00 in0.0 mm 0.00 in0.0 mm
12:26 PM 63.9°F17.7°C 51.5°F10.8°C 64% 5.7 mph ENE9.2 kmh ENE 9.0 mph14.5 kmh 30.01 in1016.3 mb 0.00 in0.0 mm 0.00 in0.0 mm 0.00 in0.0 mm
12:27 PM 63.8°F17.7°C 51.4°F10.8°C 64% 5.4 mph ENE8.7 kmh ENE 9.0 mph14.5 kmh 30.00 in1015.9 mb 0.00 in0.0 mm 0.00 in0.0 mm 0.00 in0.0 mm
12:28 PM 63.8°F17.7°C 51.4°F10.8°C 64% 5.3 mph NE8.5 kmh NE 9.0 mph14.5 kmh 30.00 in1015.9 mb 0.00 in0.0 mm 0.00 in0.0 mm 0.00 in0.0 mm
12:29 PM 63.7°F17.6°C 51.3°F10.7°C 64% 9.0 mph NE14.5 kmh NE 13.0 mph20.9 kmh 30.00 in1015.9 mb 0.00 in0.0 mm 0.00 in0.0 mm 0.00 in0.0 mm
12:30 PM 63.8°F17.7°C 51.8°F11.0°C 65% 7.6 mph ENE12.2 kmh ENE 13.0 mph20.9 kmh 30.00 in1015.9 mb 0.00 in0.0 mm 0.00 in0.0 mm 0.00 in0.0 mm
12:31 PM 63.8°F17.7°C 51.0°F10.6°C 63% 8.8 mph ENE14.2 kmh ENE 11.0 mph17.7 kmh 30.00 in1015.9 mb 0.00 in0.0 mm 0.00 in0.0 mm 0.00 in0.0 mm
12:32 PM 63.7°F17.6°C 51.3°F10.7°C 64% 7.4 mph E11.9 kmh E 10.0 mph16.1 kmh 30.00 in1015.9 mb 0.00 in0.0 mm 0.00 in0.0 mm 0.00 in0.0 mm
12:33 PM 63.7°F17.6°C 51.3°F10.7°C 64% 6.6 mph E10.6 kmh E 9.0 mph14.5 kmh 30.00 in1015.9 mb 0.00 in0.0 mm 0.00 in0.0 mm 0.00 in0.0 mm
12:34 PM 63.6°F17.6°C 51.2°F10.7°C 64% 5.8 mph E9.3 kmh E 8.0 mph12.9 kmh 30.00 in1015.9 mb 0.00 in0.0 mm 0.00 in0.0 mm 0.00 in0.0 mm
12:35 PM 63.6°F17.6°C 51.6°F10.9°C 65% 5.9 mph E9.5 kmh E 8.0 mph12.9 kmh 30.00 in1015.9 mb 0.00 in0.0 mm 0.00 in0.0 mm 0.00 in0.0 mm
12:36 PM 63.6°F17.6°C 51.2°F10.7°C 64% 7.2 mph E11.6 kmh E 8.0 mph12.9 kmh 30.00 in1015.9 mb 0.00 in0.0 mm 0.00 in0.0 mm 0.00 in0.0 mm
12:37 PM 63.6°F17.6°C 51.2°F10.7°C 64% 6.6 mph E10.6 kmh E 8.0 mph12.9 kmh 30.01 in1016.3 mb 0.00 in0.0 mm 0.00 in0.0 mm 0.00 in0.0 mm
12:38 PM 63.5°F17.5°C 50.7°F10.4°C 63% 5.2 mph E8.4 kmh E 8.0 mph12.9 kmh 30.00 in1015.9 mb 0.00 in0.0 mm 0.00 in0.0 mm 0.00 in0.0 mm
12:39 PM 63.5°F17.5°C 51.1°F10.6°C 64% 4.2 mph ENE6.8 kmh ENE 7.0 mph11.3 kmh 30.00 in1015.9 mb 0.00 in0.0 mm 0.00 in0.0 mm 0.00 in0.0 mm
12:40 PM 63.5°F17.5°C 51.1°F10.6°C 64% 4.0 mph ENE6.4 kmh ENE 7.0 mph11.3 kmh 30.00 in1015.9 mb 0.00 in0.0 mm 0.00 in0.0 mm 0.00 in0.0 mm
12:41 PM 63.5°F17.5°C 51.1°F10.6°C 64% 3.2 mph ENE5.1 kmh ENE 5.0 mph8.0 kmh 30.00 in1015.9 mb 0.00 in0.0 mm 0.00 in0.0 mm 0.00 in0.0 mm
12:42 PM 63.6°F17.6°C 51.2°F10.7°C 64% 2.6 mph E4.2 kmh E 5.0 mph8.0 kmh 30.00 in1015.9 mb 0.00 in0.0 mm 0.00 in0.0 mm 0.00 in0.0 mm
12:43 PM 63.7°F17.6°C 51.3°F10.7°C 64% 2.8 mph NE4.5 kmh NE 4.0 mph6.4 kmh 30.00 in1015.9 mb 0.00 in0.0 mm 0.00 in0.0 mm 0.00 in0.0 mm
12:44 PM 63.7°F17.6°C 51.3°F10.7°C 64% 3.5 mph E5.6 kmh E 6.0 mph9.7 kmh 30.00 in1015.9 mb 0.00 in0.0 mm 0.00 in0.0 mm 0.00 in0.0 mm
12:45 PM 63.8°F17.7°C 51.8°F11.0°C 65% 4.9 mph NE7.9 kmh NE 8.0 mph12.9 kmh 30.00 in1015.9 mb 0.00 in0.0 mm 0.00 in0.0 mm 0.00 in0.0 mm
12:46 PM 63.9°F17.7°C 51.5°F10.8°C 64% 5.7 mph NE9.2 kmh NE 9.0 mph14.5 kmh 30.00 in1015.9 mb 0.00 in0.0 mm 0.00 in0.0 mm 0.00 in0.0 mm
12:47 PM 64.0°F17.8°C 51.6°F10.9°C 64% 5.1 mph NE8.2 kmh NE 9.0 mph14.5 kmh 30.00 in1015.9 mb 0.00 in0.0 mm 0.00 in0.0 mm 0.00 in0.0 mm
12:48 PM 64.0°F17.8°C 51.1°F10.6°C 63% 6.1 mph NE9.8 kmh NE 10.0 mph16.1 kmh 30.00 in1015.9 mb 0.00 in0.0 mm 0.00 in0.0 mm 0.00 in0.0 mm
12:49 PM 64.1°F17.8°C 51.2°F10.7°C 63% 2.7 mph ENE4.3 kmh ENE 10.0 mph16.1 kmh 30.00 in1015.9 mb 0.00 in0.0 mm 0.00 in0.0 mm 0.00 in0.0 mm
12:50 PM 64.2°F17.9°C 51.8°F11.0°C 64% 4.9 mph E7.9 kmh E 6.0 mph9.7 kmh 30.00 in1015.9 mb 0.00 in0.0 mm 0.00 in0.0 mm 0.00 in0.0 mm
12:51 PM 64.3°F17.9°C 51.4°F10.8°C 63% 3.1 mph E5.0 kmh E 6.0 mph9.7 kmh 30.00 in1015.9 mb 0.00 in0.0 mm 0.00 in0.0 mm 0.00 in0.0 mm
12:52 PM 64.3°F17.9°C 51.9°F11.1°C 64% 4.6 mph ESE7.4 kmh ESE 8.0 mph12.9 kmh 30.00 in1015.9 mb 0.00 in0.0 mm 0.00 in0.0 mm 0.00 in0.0 mm
12:53 PM 64.4°F18.0°C 52.0°F11.1°C 64% 4.3 mph E6.9 kmh E 8.0 mph12.9 kmh 30.00 in1015.9 mb 0.00 in0.0 mm 0.00 in0.0 mm 0.00 in0.0 mm
12:54 PM 64.5°F18.1°C 52.0°F11.1°C 64% 3.2 mph ESE5.1 kmh ESE 6.0 mph9.7 kmh 30.00 in1015.9 mb 0.00 in0.0 mm 0.00 in0.0 mm 0.00 in0.0 mm
12:55 PM 64.5°F18.1°C 52.0°F11.1°C 64% 4.6 mph SE7.4 kmh SE 7.0 mph11.3 kmh 30.00 in1015.9 mb 0.00 in0.0 mm 0.00 in0.0 mm 0.00 in0.0 mm
12:56 PM 64.6°F18.1°C 51.3°F10.7°C 62% 7.1 mph SE11.4 kmh SE 8.0 mph12.9 kmh 30.00 in1015.9 mb 0.00 in0.0 mm 0.00 in0.0 mm 0.00 in0.0 mm
12:57 PM 64.5°F18.1°C 51.2°F10.7°C 62% 6.0 mph SE9.7 kmh SE 8.0 mph12.9 kmh 30.00 in1015.9 mb 0.00 in0.0 mm 0.00 in0.0 mm 0.00 in0.0 mm
12:58 PM 64.4°F18.0°C 51.1°F10.6°C 62% 7.0 mph E11.3 kmh E 8.0 mph12.9 kmh 30.00 in1015.9 mb 0.00 in0.0 mm 0.00 in0.0 mm 0.00 in0.0 mm
12:59 PM 64.3°F17.9°C 50.6°F10.3°C 61% 3.3 mph E5.3 kmh E 4.0 mph6.4 kmh 30.00 in1015.9 mb 0.00 in0.0 mm 0.00 in0.0 mm 0.00 in0.0 mm
01:00 PM 64.2°F17.9°C 49.6°F9.8°C 59% 2.4 mph ESE3.9 kmh ESE 4.0 mph6.4 kmh 30.00 in1015.9 mb 0.00 in0.0 mm 0.00 in0.0 mm 0.00 in0.0 mm
01:01 PM 64.1°F17.8°C 49.9°F9.9°C 60% 3.2 mph E5.1 kmh E 4.0 mph6.4 kmh 30.00 in1015.9 mb 0.00 in0.0 mm 0.00 in0.0 mm 0.00 in0.0 mm
01:02 PM 64.1°F17.8°C 50.4°F10.2°C 61% 2.9 mph E4.7 kmh E 4.0 mph6.4 kmh 30.00 in1015.9 mb 0.00 in0.0 mm 0.00 in0.0 mm 0.00 in0.0 mm
01:03 PM 64.1°F17.8°C 50.8°F10.4°C 62% 3.9 mph E6.3 kmh E 6.0 mph9.7 kmh 30.00 in1015.9 mb 0.00 in0.0 mm 0.00 in0.0 mm 0.00 in0.0 mm
01:04 PM 64.0°F17.8°C 50.7°F10.4°C 62% 4.4 mph E7.1 kmh E 6.0 mph9.7 kmh 30.00 in1015.9 mb 0.00 in0.0 mm 0.00 in0.0 mm 0.00 in0.0 mm
01:05 PM 64.0°F17.8°C 51.1°F10.6°C 63% 5.4 mph E8.7 kmh E 7.0 mph11.3 kmh 30.00 in1015.9 mb 0.00 in0.0 mm 0.00 in0.0 mm 0.00 in0.0 mm
01:06 PM 64.0°F17.8°C 51.1°F10.6°C 63% 7.2 mph E11.6 kmh E 12.0 mph19.3 kmh 30.00 in1015.9 mb 0.00 in0.0 mm 0.00 in0.0 mm 0.00 in0.0 mm
01:07 PM 64.0°F17.8°C 51.6°F10.9°C 64% 8.3 mph ESE13.4 kmh ESE 12.0 mph19.3 kmh 30.00 in1015.9 mb 0.00 in0.0 mm 0.00 in0.0 mm 0.00 in0.0 mm
01:08 PM 63.9°F17.7°C 51.1°F10.6°C 63% 6.8 mph SE10.9 kmh SE 10.0 mph16.1 kmh 30.00 in1015.9 mb 0.00 in0.0 mm 0.00 in0.0 mm 0.00 in0.0 mm
01:09 PM 63.9°F17.7°C 51.1°F10.6°C 63% 7.4 mph ESE11.9 kmh ESE 9.0 mph14.5 kmh 30.00 in1015.9 mb 0.00 in0.0 mm 0.00 in0.0 mm 0.00 in0.0 mm
01:10 PM 63.9°F17.7°C 50.6°F10.3°C 62% 4.2 mph ESE6.8 kmh ESE 9.0 mph14.5 kmh 30.00 in1015.9 mb 0.00 in0.0 mm 0.00 in0.0 mm 0.00 in0.0 mm
01:11 PM 63.9°F17.7°C 51.5°F10.8°C 64% 5.6 mph ESE9.0 kmh ESE 8.0 mph12.9 kmh 30.00 in1015.9 mb 0.00 in0.0 mm 0.00 in0.0 mm 0.00 in0.0 mm
01:12 PM 64.0°F17.8°C 51.1°F10.6°C 63% 4.6 mph SE7.4 kmh SE 8.0 mph12.9 kmh 30.00 in1015.9 mb 0.00 in0.0 mm 0.00 in0.0 mm 0.00 in0.0 mm
01:13 PM 64.0°F17.8°C 51.1°F10.6°C 63% 4.4 mph ENE7.1 kmh ENE 7.0 mph11.3 kmh 30.00 in1015.9 mb 0.00 in0.0 mm 0.00 in0.0 mm 0.00 in0.0 mm
01:14 PM 64.1°F17.8°C 51.2°F10.7°C 63% 4.5 mph E7.2 kmh E 7.0 mph11.3 kmh 30.00 in1015.9 mb 0.00 in0.0 mm 0.00 in0.0 mm 0.00 in0.0 mm
01:15 PM 64.1°F17.8°C 51.2°F10.7°C 63% 3.4 mph E5.5 kmh E 7.0 mph11.3 kmh 30.00 in1015.9 mb 0.00 in0.0 mm 0.00 in0.0 mm 0.00 in0.0 mm
01:16 PM 64.2°F17.9°C 51.8°F11.0°C 64% 4.6 mph SE7.4 kmh SE 7.0 mph11.3 kmh 30.00 in1015.9 mb 0.00 in0.0 mm 0.00 in0.0 mm 0.00 in0.0 mm
01:17 PM 64.3°F17.9°C 50.6°F10.3°C 61% 4.0 mph SE6.4 kmh SE 7.0 mph11.3 kmh 30.00 in1015.9 mb 0.00 in0.0 mm 0.00 in0.0 mm 0.00 in0.0 mm
01:18 PM 64.3°F17.9°C 51.0°F10.6°C 62% 3.7 mph SE6.0 kmh SE 7.0 mph11.3 kmh 30.00 in1015.9 mb 0.00 in0.0 mm 0.00 in0.0 mm 0.00 in0.0 mm
01:19 PM 64.4°F18.0°C 51.1°F10.6°C 62% 5.6 mph SE9.0 kmh SE 9.0 mph14.5 kmh 29.99 in1015.6 mb 0.00 in0.0 mm 0.00 in0.0 mm 0.00 in0.0 mm
01:20 PM 64.5°F18.1°C 51.2°F10.7°C 62% 5.2 mph SE8.4 kmh SE 9.0 mph14.5 kmh 29.99 in1015.6 mb 0.00 in0.0 mm 0.00 in0.0 mm 0.00 in0.0 mm
01:21 PM 64.5°F18.1°C 51.6°F10.9°C 63% 6.9 mph SE11.1 kmh SE 10.0 mph16.1 kmh 30.00 in1015.9 mb 0.00 in0.0 mm 0.00 in0.0 mm 0.00 in0.0 mm
01:22 PM 64.6°F18.1°C 52.1°F11.2°C 64% 9.3 mph SE15.0 kmh SE 12.0 mph19.3 kmh 29.99 in1015.6 mb 0.00 in0.0 mm 0.00 in0.0 mm 0.00 in0.0 mm
01:23 PM 64.6°F18.1°C 52.6°F11.4°C 65% 6.9 mph E11.1 kmh E 12.0 mph19.3 kmh 29.99 in1015.6 mb 0.00 in0.0 mm 0.00 in0.0 mm 0.00 in0.0 mm
01:24 PM 64.6°F18.1°C 52.1°F11.2°C 64% 6.3 mph E10.1 kmh E 9.0 mph14.5 kmh 29.99 in1015.6 mb 0.00 in0.0 mm 0.00 in0.0 mm 0.00 in0.0 mm
01:25 PM 64.5°F18.1°C 52.0°F11.1°C 64% 4.9 mph ENE7.9 kmh ENE 8.0 mph12.9 kmh 29.99 in1015.6 mb 0.00 in0.0 mm 0.00 in0.0 mm 0.00 in0.0 mm
01:26 PM 64.5°F18.1°C 52.5°F11.4°C 65% 5.0 mph ENE8.0 kmh ENE 8.0 mph12.9 kmh 29.99 in1015.6 mb 0.00 in0.0 mm 0.00 in0.0 mm 0.00 in0.0 mm
01:27 PM 64.5°F18.1°C 52.0°F11.1°C 64% 4.7 mph ENE7.6 kmh ENE 8.0 mph12.9 kmh 29.99 in1015.6 mb 0.00 in0.0 mm 0.00 in0.0 mm 0.00 in0.0 mm
01:28 PM 64.6°F18.1°C 51.7°F10.9°C 63% 4.2 mph E6.8 kmh E 6.0 mph9.7 kmh 30.00 in1015.9 mb 0.00 in0.0 mm 0.00 in0.0 mm 0.00 in0.0 mm
01:29 PM 64.6°F18.1°C 52.1°F11.2°C 64% 4.7 mph E7.6 kmh E 8.0 mph12.9 kmh 29.99 in1015.6 mb 0.00 in0.0 mm 0.00 in0.0 mm 0.00 in0.0 mm
01:30 PM 64.6°F18.1°C 52.1°F11.2°C 64% 5.1 mph ENE8.2 kmh ENE 8.0 mph12.9 kmh 29.99 in1015.6 mb 0.00 in0.0 mm 0.00 in0.0 mm 0.00 in0.0 mm
01:31 PM 64.7°F18.2°C 51.8°F11.0°C 63% 7.4 mph E11.9 kmh E 9.0 mph14.5 kmh 29.99 in1015.6 mb 0.00 in0.0 mm 0.00 in0.0 mm 0.00 in0.0 mm
01:32 PM 64.6°F18.1°C 51.7°F10.9°C 63% 6.1 mph ENE9.8 kmh ENE 9.0 mph14.5 kmh 29.99 in1015.6 mb 0.00 in0.0 mm 0.00 in0.0 mm 0.00 in0.0 mm
01:33 PM 64.6°F18.1°C 52.1°F11.2°C 64% 5.1 mph ENE8.2 kmh ENE 9.0 mph14.5 kmh 29.99 in1015.6 mb 0.00 in0.0 mm 0.00 in0.0 mm 0.00 in0.0 mm
01:34 PM 64.6°F18.1°C 52.1°F11.2°C 64% 3.5 mph E5.6 kmh E 7.0 mph11.3 kmh 29.99 in1015.6 mb 0.00 in0.0 mm 0.00 in0.0 mm 0.00 in0.0 mm
01:35 PM 64.6°F18.1°C 51.7°F10.9°C 63% 3.0 mph ENE4.8 kmh ENE 5.0 mph8.0 kmh 29.99 in1015.6 mb 0.00 in0.0 mm 0.00 in0.0 mm 0.00 in0.0 mm
01:36 PM 64.6°F18.1°C 52.1°F11.2°C 64% 3.5 mph ENE5.6 kmh ENE 5.0 mph8.0 kmh 29.99 in1015.6 mb 0.00 in0.0 mm 0.00 in0.0 mm 0.00 in0.0 mm
01:37 PM 64.6°F18.1°C 52.1°F11.2°C 64% 5.2 mph E8.4 kmh E 8.0 mph12.9 kmh 29.99 in1015.6 mb 0.00 in0.0 mm 0.00 in0.0 mm 0.00 in0.0 mm
01:38 PM 64.6°F18.1°C 51.3°F10.7°C 62% 3.9 mph ESE6.3 kmh ESE 8.0 mph12.9 kmh 29.99 in1015.6 mb 0.00 in0.0 mm 0.00 in0.0 mm 0.00 in0.0 mm
01:39 PM 64.6°F18.1°C 51.3°F10.7°C 62% 4.7 mph ESE7.6 kmh ESE 6.0 mph9.7 kmh 29.99 in1015.6 mb 0.00 in0.0 mm 0.00 in0.0 mm 0.00 in0.0 mm
01:40 PM 64.7°F18.2°C 51.4°F10.8°C 62% 5.0 mph ESE8.0 kmh ESE 8.0 mph12.9 kmh 29.99 in1015.6 mb 0.00 in0.0 mm 0.00 in0.0 mm 0.00 in0.0 mm
01:41 PM 64.7°F18.2°C 50.9°F10.5°C 61% 6.1 mph SE9.8 kmh SE 8.0 mph12.9 kmh 29.99 in1015.6 mb 0.00 in0.0 mm 0.00 in0.0 mm 0.00 in0.0 mm
01:42 PM 64.6°F18.1°C 50.4°F10.2°C 60% 4.3 mph ESE6.9 kmh ESE 8.0 mph12.9 kmh 29.99 in1015.6 mb 0.00 in0.0 mm 0.00 in0.0 mm 0.00 in0.0 mm
01:43 PM 64.7°F18.2°C 50.5°F10.3°C 60% 3.9 mph E6.3 kmh E 6.0 mph9.7 kmh 29.99 in1015.6 mb 0.00 in0.0 mm 0.00 in0.0 mm 0.00 in0.0 mm
01:44 PM 64.6°F18.1°C 50.4°F10.2°C 60% 3.6 mph E5.8 kmh E 6.0 mph9.7 kmh 29.99 in1015.6 mb 0.00 in0.0 mm 0.00 in0.0 mm 0.00 in0.0 mm
01:45 PM 64.6°F18.1°C 50.8°F10.4°C 61% 2.8 mph E4.5 kmh E 6.0 mph9.7 kmh 29.99 in1015.6 mb 0.00 in0.0 mm 0.00 in0.0 mm 0.00 in0.0 mm
01:46 PM 64.7°F18.2°C 50.9°F10.5°C 61% 3.3 mph E5.3 kmh E 6.0 mph9.7 kmh 29.99 in1015.6 mb 0.00 in0.0 mm 0.00 in0.0 mm 0.00 in0.0 mm
01:47 PM 64.6°F18.1°C 50.8°F10.4°C 61% 3.2 mph E5.1 kmh E 6.0 mph9.7 kmh 29.99 in1015.6 mb 0.00 in0.0 mm 0.00 in0.0 mm 0.00 in0.0 mm
01:48 PM 64.7°F18.2°C 51.4°F10.8°C 62% 2.4 mph E3.9 kmh E 4.0 mph6.4 kmh 29.99 in1015.6 mb 0.00 in0.0 mm 0.00 in0.0 mm 0.00 in0.0 mm
01:49 PM 64.7°F18.2°C 51.4°F10.8°C 62% 3.5 mph E5.6 kmh E 6.0 mph9.7 kmh 29.99 in1015.6 mb 0.00 in0.0 mm 0.00 in0.0 mm 0.00 in0.0 mm
01:50 PM 64.7°F18.2°C 51.4°F10.8°C 62% 4.1 mph ESE6.6 kmh ESE 7.0 mph11.3 kmh 29.99 in1015.6 mb 0.00 in0.0 mm 0.00 in0.0 mm 0.00 in0.0 mm
01:51 PM 64.7°F18.2°C 51.4°F10.8°C 62% 2.5 mph ESE4.0 kmh ESE 7.0 mph11.3 kmh 29.99 in1015.6 mb 0.00 in0.0 mm 0.00 in0.0 mm 0.00 in0.0 mm
01:52 PM 64.7°F18.2°C 51.4°F10.8°C 62% 1.2 mph ESE1.9 kmh ESE 4.0 mph6.4 kmh 29.99 in1015.6 mb 0.00 in0.0 mm 0.00 in0.0 mm 0.00 in0.0 mm
01:53 PM 64.7°F18.2°C 51.8°F11.0°C 63% 2.6 mph E4.2 kmh E 3.0 mph4.8 kmh 29.99 in1015.6 mb 0.00 in0.0 mm 0.00 in0.0 mm 0.00 in0.0 mm
01:54 PM 64.8°F18.2°C 51.9°F11.1°C 63% 2.6 mph SE4.2 kmh SE 4.0 mph6.4 kmh 29.99 in1015.6 mb 0.00 in0.0 mm 0.00 in0.0 mm 0.00 in0.0 mm
01:55 PM 64.8°F18.2°C 51.9°F11.1°C 63% 2.6 mph ESE4.2 kmh ESE 4.0 mph6.4 kmh 29.99 in1015.6 mb 0.00 in0.0 mm 0.00 in0.0 mm 0.00 in0.0 mm
01:56 PM 64.9°F18.3°C 52.0°F11.1°C 63% 4.2 mph E6.8 kmh E 5.0 mph8.0 kmh 29.99 in1015.6 mb 0.00 in0.0 mm 0.00 in0.0 mm 0.00 in0.0 mm
01:57 PM 64.8°F18.2°C 51.5°F10.8°C 62% 5.3 mph E8.5 kmh E 7.0 mph11.3 kmh 29.99 in1015.6 mb 0.00 in0.0 mm 0.00 in0.0 mm 0.00 in0.0 mm
01:58 PM 64.7°F18.2°C 51.8°F11.0°C 63% 4.7 mph E7.6 kmh E 8.0 mph12.9 kmh 29.99 in1015.6 mb 0.00 in0.0 mm 0.00 in0.0 mm 0.00 in0.0 mm
01:59 PM 64.7°F18.2°C 52.2°F11.2°C 64% 5.4 mph ENE8.7 kmh ENE 8.0 mph12.9 kmh 29.99 in1015.6 mb 0.00 in0.0 mm 0.00 in0.0 mm 0.00 in0.0 mm
02:00 PM 64.6°F18.1°C 52.1°F11.2°C 64% 7.8 mph E12.6 kmh E 11.0 mph17.7 kmh 29.99 in1015.6 mb 0.00 in0.0 mm 0.00 in0.0 mm 0.00 in0.0 mm
02:01 PM 64.5°F18.1°C 52.5°F11.4°C 65% 6.0 mph E9.7 kmh E 11.0 mph17.7 kmh 29.99 in1015.6 mb 0.00 in0.0 mm 0.00 in0.0 mm 0.00 in0.0 mm
02:02 PM 64.5°F18.1°C 52.5°F11.4°C 65% 5.7 mph ENE9.2 kmh ENE 9.0 mph14.5 kmh 29.99 in1015.6 mb 0.00 in0.0 mm 0.00 in0.0 mm 0.00 in0.0 mm
02:03 PM 64.5°F18.1°C 52.9°F11.6°C 66% 7.1 mph NE11.4 kmh NE 9.0 mph14.5 kmh 29.99 in1015.6 mb 0.00 in0.0 mm 0.00 in0.0 mm 0.00 in0.0 mm
02:04 PM 64.4°F18.0°C 52.8°F11.6°C 66% 6.6 mph NE10.6 kmh NE 9.0 mph14.5 kmh 29.99 in1015.6 mb 0.00 in0.0 mm 0.00 in0.0 mm 0.00 in0.0 mm
02:05 PM 64.4°F18.0°C 52.8°F11.6°C 66% 4.3 mph NE6.9 kmh NE 10.0 mph16.1 kmh 29.99 in1015.6 mb 0.00 in0.0 mm 0.00 in0.0 mm 0.00 in0.0 mm
02:06 PM 64.3°F17.9°C 52.7°F11.5°C 66% 5.8 mph ENE9.3 kmh ENE 8.0 mph12.9 kmh 29.98 in1015.2 mb 0.00 in0.0 mm 0.00 in0.0 mm 0.00 in0.0 mm
02:07 PM 64.2°F17.9°C 52.6°F11.4°C 66% 8.1 mph ENE13.0 kmh ENE 11.0 mph17.7 kmh 29.99 in1015.6 mb 0.00 in0.0 mm 0.00 in0.0 mm 0.00 in0.0 mm
02:08 PM 64.2°F17.9°C 52.2°F11.2°C 65% 7.0 mph E11.3 kmh E 11.0 mph17.7 kmh 29.99 in1015.6 mb 0.00 in0.0 mm 0.00 in0.0 mm 0.00 in0.0 mm
02:09 PM 64.1°F17.8°C 52.5°F11.4°C 66% 4.5 mph ENE7.2 kmh ENE 9.0 mph14.5 kmh 29.99 in1015.6 mb 0.00 in0.0 mm 0.00 in0.0 mm 0.00 in0.0 mm
02:10 PM 64.0°F17.8°C 52.8°F11.6°C 67% 5.4 mph E8.7 kmh E 8.0 mph12.9 kmh 29.99 in1015.6 mb 0.00 in0.0 mm 0.00 in0.0 mm 0.00 in0.0 mm
02:11 PM 64.0°F17.8°C 52.4°F11.3°C 66% 7.1 mph E11.4 kmh E 10.0 mph16.1 kmh 29.98 in1015.2 mb 0.00 in0.0 mm 0.00 in0.0 mm 0.00 in0.0 mm
02:12 PM 63.9°F17.7°C 52.3°F11.3°C 66% 5.6 mph ENE9.0 kmh ENE 10.0 mph16.1 kmh 29.99 in1015.6 mb 0.00 in0.0 mm 0.00 in0.0 mm 0.00 in0.0 mm
02:13 PM 63.8°F17.7°C 52.6°F11.4°C 67% 8.0 mph ENE12.9 kmh ENE 10.0 mph16.1 kmh 29.98 in1015.2 mb 0.00 in0.0 mm 0.00 in0.0 mm 0.00 in0.0 mm
02:14 PM 63.7°F17.6°C 52.1°F11.2°C 66% 5.9 mph NE9.5 kmh NE 10.0 mph16.1 kmh 29.99 in1015.6 mb 0.00 in0.0 mm 0.00 in0.0 mm 0.00 in0.0 mm
02:15 PM 63.7°F17.6°C 52.1°F11.2°C 66% 7.9 mph ENE12.7 kmh ENE 11.0 mph17.7 kmh 29.99 in1015.6 mb 0.00 in0.0 mm 0.00 in0.0 mm 0.00 in0.0 mm
02:16 PM 63.6°F17.6°C 52.0°F11.1°C 66% 7.8 mph ENE12.6 kmh ENE 11.0 mph17.7 kmh 29.99 in1015.6 mb 0.00 in0.0 mm 0.00 in0.0 mm 0.00 in0.0 mm
02:17 PM 63.6°F17.6°C 52.0°F11.1°C 66% 8.0 mph NE12.9 kmh NE 10.0 mph16.1 kmh 29.98 in1015.2 mb 0.00 in0.0 mm 0.00 in0.0 mm 0.00 in0.0 mm
02:18 PM 63.5°F17.5°C 51.9°F11.1°C 66% 6.9 mph ENE11.1 kmh ENE 10.0 mph16.1 kmh 29.99 in1015.6 mb 0.00 in0.0 mm 0.00 in0.0 mm 0.00 in0.0 mm
02:19 PM 63.5°F17.5°C 51.9°F11.1°C 66% 5.9 mph ENE9.5 kmh ENE 9.0 mph14.5 kmh 29.99 in1015.6 mb 0.00 in0.0 mm 0.00 in0.0 mm 0.00 in0.0 mm
02:20 PM 63.5°F17.5°C 51.9°F11.1°C 66% 5.3 mph E8.5 kmh E 8.0 mph12.9 kmh 29.99 in1015.6 mb 0.00 in0.0 mm 0.00 in0.0 mm 0.00 in0.0 mm
02:21 PM 63.4°F17.4°C 51.8°F11.0°C 66% 3.3 mph ENE5.3 kmh ENE 8.0 mph12.9 kmh 29.99 in1015.6 mb 0.00 in0.0 mm 0.00 in0.0 mm 0.00 in0.0 mm
02:22 PM 63.3°F17.4°C 51.7°F10.9°C 66% 5.3 mph ENE8.5 kmh ENE 8.0 mph12.9 kmh 29.99 in1015.6 mb 0.00 in0.0 mm 0.00 in0.0 mm 0.00 in0.0 mm
02:23 PM 63.3°F17.4°C 51.7°F10.9°C 66% 5.5 mph ENE8.9 kmh ENE 8.0 mph12.9 kmh 29.99 in1015.6 mb 0.00 in0.0 mm 0.00 in0.0 mm 0.00 in0.0 mm
02:24 PM 63.3°F17.4°C 51.7°F10.9°C 66% 3.6 mph ENE5.8 kmh ENE 8.0 mph12.9 kmh 29.98 in1015.2 mb 0.00 in0.0 mm 0.00 in0.0 mm 0.00 in0.0 mm
02:25 PM 63.3°F17.4°C 52.2°F11.2°C 67% 5.0 mph ENE8.0 kmh ENE 8.0 mph12.9 kmh 29.99 in1015.6 mb 0.00 in0.0 mm 0.00 in0.0 mm 0.00 in0.0 mm
02:26 PM 63.3°F17.4°C 51.7°F10.9°C 66% 6.0 mph ENE9.7 kmh ENE 9.0 mph14.5 kmh 29.99 in1015.6 mb 0.00 in0.0 mm 0.00 in0.0 mm 0.00 in0.0 mm
02:27 PM 63.3°F17.4°C 51.7°F10.9°C 66% 5.0 mph ENE8.0 kmh ENE 6.0 mph9.7 kmh 29.99 in1015.6 mb 0.00 in0.0 mm 0.00 in0.0 mm 0.00 in0.0 mm
02:28 PM 63.3°F17.4°C 52.2°F11.2°C 67% 3.6 mph E5.8 kmh E 6.0 mph9.7 kmh 29.98 in1015.2 mb 0.00 in0.0 mm 0.00 in0.0 mm 0.00 in0.0 mm
02:29 PM 63.3°F17.4°C 52.2°F11.2°C 67% 4.4 mph E7.1 kmh E 8.0 mph12.9 kmh 29.98 in1015.2 mb 0.00 in0.0 mm 0.00 in0.0 mm 0.00 in0.0 mm
02:30 PM 63.3°F17.4°C 52.2°F11.2°C 67% 7.1 mph E11.4 kmh E 10.0 mph16.1 kmh 29.99 in1015.6 mb 0.00 in0.0 mm 0.00 in0.0 mm 0.00 in0.0 mm
02:31 PM 63.2°F17.3°C 51.6°F10.9°C 66% 7.0 mph E11.3 kmh E 10.0 mph16.1 kmh 29.98 in1015.2 mb 0.00 in0.0 mm 0.00 in0.0 mm 0.00 in0.0 mm
02:32 PM 63.3°F17.4°C 51.7°F10.9°C 66% 6.7 mph ESE10.8 kmh ESE 9.0 mph14.5 kmh 29.98 in1015.2 mb 0.00 in0.0 mm 0.00 in0.0 mm 0.00 in0.0 mm
02:33 PM 63.3°F17.4°C 51.7°F10.9°C 66% 7.8 mph E12.6 kmh E 10.0 mph16.1 kmh 29.98 in1015.2 mb 0.00 in0.0 mm 0.00 in0.0 mm 0.00 in0.0 mm
02:34 PM 63.3°F17.4°C 51.7°F10.9°C 66% 5.4 mph ESE8.7 kmh ESE 10.0 mph16.1 kmh 29.98 in1015.2 mb 0.00 in0.0 mm 0.00 in0.0 mm 0.00 in0.0 mm
02:35 PM 63.3°F17.4°C 51.7°F10.9°C 66% 6.4 mph E10.3 kmh E 8.0 mph12.9 kmh 29.98 in1015.2 mb 0.00 in0.0 mm 0.00 in0.0 mm 0.00 in0.0 mm
02:36 PM 63.3°F17.4°C 51.7°F10.9°C 66% 6.4 mph E10.3 kmh E 10.0 mph16.1 kmh 29.98 in1015.2 mb 0.00 in0.0 mm 0.00 in0.0 mm 0.00 in0.0 mm
02:37 PM 63.3°F17.4°C 52.2°F11.2°C 67% 5.9 mph E9.5 kmh E 10.0 mph16.1 kmh 29.98 in1015.2 mb 0.00 in0.0 mm 0.00 in0.0 mm 0.00 in0.0 mm
02:38 PM 63.3°F17.4°C 52.2°F11.2°C 67% 6.9 mph E11.1 kmh E 10.0 mph16.1 kmh 29.98 in1015.2 mb 0.00 in0.0 mm 0.00 in0.0 mm 0.00 in0.0 mm
02:39 PM 63.3°F17.4°C 52.2°F11.2°C 67% 7.1 mph E11.4 kmh E 10.0 mph16.1 kmh 29.98 in1015.2 mb 0.00 in0.0 mm 0.00 in0.0 mm 0.00 in0.0 mm
02:40 PM 63.3°F17.4°C 52.6°F11.4°C 68% 7.1 mph E11.4 kmh E 9.0 mph14.5 kmh 29.98 in1015.2 mb 0.00 in0.0 mm 0.00 in0.0 mm 0.00 in0.0 mm
02:41 PM 63.4°F17.4°C 52.6°F11.4°C 68% 5.1 mph E8.2 kmh E 9.0 mph14.5 kmh 29.98 in1015.2 mb 0.00 in0.0 mm 0.00 in0.0 mm 0.00 in0.0 mm
02:42 PM 63.4°F17.4°C 52.6°F11.4°C 68% 5.4 mph E8.7 kmh E 8.0 mph12.9 kmh 29.98 in1015.2 mb 0.00 in0.0 mm 0.00 in0.0 mm 0.00 in0.0 mm
02:43 PM 63.4°F17.4°C 52.6°F11.4°C 68% 6.7 mph E10.8 kmh E 9.0 mph14.5 kmh 29.98 in1015.2 mb 0.00 in0.0 mm 0.00 in0.0 mm 0.00 in0.0 mm
02:44 PM 63.5°F17.5°C 52.3°F11.3°C 67% 6.4 mph E10.3 kmh E 9.0 mph14.5 kmh 29.98 in1015.2 mb 0.00 in0.0 mm 0.00 in0.0 mm 0.00 in0.0 mm
02:45 PM 63.5°F17.5°C 52.3°F11.3°C 67% 8.0 mph E12.9 kmh E 10.0 mph16.1 kmh 29.98 in1015.2 mb 0.00 in0.0 mm 0.00 in0.0 mm 0.00 in0.0 mm
02:46 PM 63.5°F17.5°C 52.3°F11.3°C 67% 6.3 mph E10.1 kmh E 10.0 mph16.1 kmh 29.98 in1015.2 mb 0.00 in0.0 mm 0.00 in0.0 mm 0.00 in0.0 mm
02:47 PM 63.5°F17.5°C 51.9°F11.1°C 66% 7.1 mph E11.4 kmh E 9.0 mph14.5 kmh 29.98 in1015.2 mb 0.00 in0.0 mm 0.00 in0.0 mm 0.00 in0.0 mm
02:48 PM 63.4°F17.4°C 51.8°F11.0°C 66% 8.0 mph E12.9 kmh E 10.0 mph16.1 kmh 29.98 in1015.2 mb 0.00 in0.0 mm 0.00 in0.0 mm 0.00 in0.0 mm
02:49 PM 63.4°F17.4°C 51.8°F11.0°C 66% 4.9 mph E7.9 kmh E 10.0 mph16.1 kmh 29.98 in1015.2 mb 0.00 in0.0 mm 0.00 in0.0 mm 0.00 in0.0 mm
02:50 PM 63.4°F17.4°C 52.2°F11.2°C 67% 6.5 mph E10.5 kmh E 8.0 mph12.9 kmh 29.98 in1015.2 mb 0.00 in0.0 mm 0.00 in0.0 mm 0.00 in0.0 mm
02:51 PM 63.4°F17.4°C 51.8°F11.0°C 66% 7.0 mph E11.3 kmh E 8.0 mph12.9 kmh 29.98 in1015.2 mb 0.00 in0.0 mm 0.00 in0.0 mm 0.00 in0.0 mm
02:52 PM 63.4°F17.4°C 51.8°F11.0°C 66% 7.0 mph E11.3 kmh E 8.0 mph12.9 kmh 29.98 in1015.2 mb 0.00 in0.0 mm 0.00 in0.0 mm 0.00 in0.0 mm
02:53 PM 63.4°F17.4°C 51.8°F11.0°C 66% 6.4 mph E10.3 kmh E 8.0 mph12.9 kmh 29.98 in1015.2 mb 0.00 in0.0 mm 0.00 in0.0 mm 0.00 in0.0 mm
02:54 PM 63.3°F17.4°C 52.2°F11.2°C 67% 5.1 mph E8.2 kmh E 8.0 mph12.9 kmh 29.98 in1015.2 mb 0.00 in0.0 mm 0.00 in0.0 mm 0.00 in0.0 mm
02:55 PM 63.3°F17.4°C 51.3°F10.7°C 65% 8.9 mph E14.3 kmh E 10.0 mph16.1 kmh 29.98 in1015.2 mb 0.00 in0.0 mm 0.00 in0.0 mm 0.00 in0.0 mm
02:56 PM 63.1°F17.3°C 51.1°F10.6°C 65% 8.5 mph E13.7 kmh E 10.0 mph16.1 kmh 29.98 in1015.2 mb 0.00 in0.0 mm 0.00 in0.0 mm 0.00 in0.0 mm
02:57 PM 63.1°F17.3°C 51.1°F10.6°C 65% 7.3 mph E11.7 kmh E 10.0 mph16.1 kmh 29.98 in1015.2 mb 0.00 in0.0 mm 0.00 in0.0 mm 0.00 in0.0 mm
02:58 PM 63.0°F17.2°C 51.0°F10.6°C 65% 7.1 mph E11.4 kmh E 11.0 mph17.7 kmh 29.98 in1015.2 mb 0.00 in0.0 mm 0.00 in0.0 mm 0.00 in0.0 mm
02:59 PM 62.9°F17.2°C 50.5°F10.3°C 64% 9.3 mph E15.0 kmh E 12.0 mph19.3 kmh 29.98 in1015.2 mb 0.00 in0.0 mm 0.00 in0.0 mm 0.00 in0.0 mm
03:00 PM 62.9°F17.2°C 50.9°F10.5°C 65% 7.0 mph E11.3 kmh E 12.0 mph19.3 kmh 29.98 in1015.2 mb 0.00 in0.0 mm 0.00 in0.0 mm 0.00 in0.0 mm
03:01 PM 62.9°F17.2°C 50.9°F10.5°C 65% 7.8 mph E12.6 kmh E 9.0 mph14.5 kmh 29.98 in1015.2 mb 0.00 in0.0 mm 0.00 in0.0 mm 0.00 in0.0 mm
03:02 PM 62.9°F17.2°C 50.9°F10.5°C 65% 6.8 mph E10.9 kmh E 9.0 mph14.5 kmh 29.98 in1015.2 mb 0.00 in0.0 mm 0.00 in0.0 mm 0.00 in0.0 mm
03:03 PM 62.9°F17.2°C 51.4°F10.8°C 66% 4.1 mph E6.6 kmh E 8.0 mph12.9 kmh 29.98 in1015.2 mb 0.00 in0.0 mm 0.00 in0.0 mm 0.00 in0.0 mm
03:04 PM 62.9°F17.2°C 51.4°F10.8°C 66% 4.7 mph E7.6 kmh E 7.0 mph11.3 kmh 29.98 in1015.2 mb 0.00 in0.0 mm 0.00 in0.0 mm 0.00 in0.0 mm
03:05 PM 62.9°F17.2°C 51.4°F10.8°C 66% 4.7 mph E7.6 kmh E 7.0 mph11.3 kmh 29.98 in1015.2 mb 0.00 in0.0 mm 0.00 in0.0 mm 0.00 in0.0 mm
03:06 PM 62.9°F17.2°C 51.4°F10.8°C 66% 3.4 mph E5.5 kmh E 7.0 mph11.3 kmh 29.98 in1015.2 mb 0.00 in0.0 mm 0.00 in0.0 mm 0.00 in0.0 mm
03:07 PM 62.9°F17.2°C 51.8°F11.0°C 67% 4.6 mph E7.4 kmh E 7.0 mph11.3 kmh 29.98 in1015.2 mb 0.00 in0.0 mm 0.00 in0.0 mm 0.00 in0.0 mm
03:08 PM 62.9°F17.2°C 51.4°F10.8°C 66% 3.0 mph E4.8 kmh E 7.0 mph11.3 kmh 29.98 in1015.2 mb 0.00 in0.0 mm 0.00 in0.0 mm 0.00 in0.0 mm
03:09 PM 63.0°F17.2°C 51.9°F11.1°C 67% 2.6 mph E4.2 kmh E 4.0 mph6.4 kmh 29.98 in1015.2 mb 0.00 in0.0 mm 0.00 in0.0 mm 0.00 in0.0 mm
03:10 PM 63.0°F17.2°C 51.9°F11.1°C 67% 3.0 mph NE4.8 kmh NE 5.0 mph8.0 kmh 29.98 in1015.2 mb 0.00 in0.0 mm 0.00 in0.0 mm 0.00 in0.0 mm
03:11 PM 63.1°F17.3°C 52.0°F11.1°C 67% 5.0 mph ENE8.0 kmh ENE 6.0 mph9.7 kmh 29.98 in1015.2 mb 0.00 in0.0 mm 0.00 in0.0 mm 0.00 in0.0 mm
03:12 PM 63.1°F17.3°C 51.6°F10.9°C 66% 5.0 mph ENE8.0 kmh ENE 7.0 mph11.3 kmh 29.98 in1015.2 mb 0.00 in0.0 mm 0.00 in0.0 mm 0.00 in0.0 mm
03:13 PM 63.1°F17.3°C 51.6°F10.9°C 66% 5.0 mph ENE8.0 kmh ENE 8.0 mph12.9 kmh 29.98 in1015.2 mb 0.00 in0.0 mm 0.00 in0.0 mm 0.00 in0.0 mm
03:14 PM 63.1°F17.3°C 51.1°F10.6°C 65% 8.0 mph ENE12.9 kmh ENE 10.0 mph16.1 kmh 29.98 in1015.2 mb 0.00 in0.0 mm 0.00 in0.0 mm 0.00 in0.0 mm
03:15 PM 63.2°F17.3°C 51.2°F10.7°C 65% 7.9 mph ENE12.7 kmh ENE 10.0 mph16.1 kmh 29.98 in1015.2 mb 0.00 in0.0 mm 0.00 in0.0 mm 0.00 in0.0 mm
03:16 PM 63.2°F17.3°C 51.2°F10.7°C 65% 6.6 mph E10.6 kmh E 10.0 mph16.1 kmh 29.98 in1015.2 mb 0.00 in0.0 mm 0.00 in0.0 mm 0.00 in0.0 mm
03:17 PM 63.2°F17.3°C 51.2°F10.7°C 65% 8.8 mph ENE14.2 kmh ENE 11.0 mph17.7 kmh 29.98 in1015.2 mb 0.00 in0.0 mm 0.00 in0.0 mm 0.00 in0.0 mm
03:18 PM 63.2°F17.3°C 51.2°F10.7°C 65% 8.0 mph ENE12.9 kmh ENE 11.0 mph17.7 kmh 29.98 in1015.2 mb 0.00 in0.0 mm 0.00 in0.0 mm 0.00 in0.0 mm
03:19 PM 63.2°F17.3°C 51.2°F10.7°C 65% 6.5 mph ENE10.5 kmh ENE 10.0 mph16.1 kmh 29.98 in1015.2 mb 0.00 in0.0 mm 0.00 in0.0 mm 0.00 in0.0 mm
03:20 PM 63.2°F17.3°C 51.6°F10.9°C 66% 5.8 mph ENE9.3 kmh ENE 9.0 mph14.5 kmh 29.98 in1015.2 mb 0.00 in0.0 mm 0.00 in0.0 mm 0.00 in0.0 mm
03:21 PM 63.2°F17.3°C 51.6°F10.9°C 66% 7.2 mph E11.6 kmh E 9.0 mph14.5 kmh 29.98 in1015.2 mb 0.00 in0.0 mm 0.00 in0.0 mm 0.00 in0.0 mm
03:22 PM 63.2°F17.3°C 51.6°F10.9°C 66% 6.4 mph E10.3 kmh E 10.0 mph16.1 kmh 29.98 in1015.2 mb 0.00 in0.0 mm 0.00 in0.0 mm 0.00 in0.0 mm
03:23 PM 63.3°F17.4°C 52.2°F11.2°C 67% 5.2 mph ENE8.4 kmh ENE 10.0 mph16.1 kmh 29.98 in1015.2 mb 0.00 in0.0 mm 0.00 in0.0 mm 0.00 in0.0 mm
03:24 PM 63.2°F17.3°C 52.1°F11.2°C 67% 8.7 mph E14.0 kmh E 11.0 mph17.7 kmh 29.98 in1015.2 mb 0.00 in0.0 mm 0.00 in0.0 mm 0.00 in0.0 mm
03:25 PM 63.3°F17.4°C 51.7°F10.9°C 66% 8.0 mph E12.9 kmh E 11.0 mph17.7 kmh 29.98 in1015.2 mb 0.00 in0.0 mm 0.00 in0.0 mm 0.00 in0.0 mm
03:26 PM 63.2°F17.3°C 52.5°F11.4°C 68% 5.0 mph ESE8.0 kmh ESE 8.0 mph12.9 kmh 29.98 in1015.2 mb 0.00 in0.0 mm 0.00 in0.0 mm 0.00 in0.0 mm
03:27 PM 63.2°F17.3°C 52.1°F11.2°C 67% 6.0 mph ESE9.7 kmh ESE 9.0 mph14.5 kmh 29.98 in1015.2 mb 0.00 in0.0 mm 0.00 in0.0 mm 0.00 in0.0 mm
03:28 PM 63.2°F17.3°C 51.2°F10.7°C 65% 5.0 mph ESE8.0 kmh ESE 8.0 mph12.9 kmh 29.98 in1015.2 mb 0.00 in0.0 mm 0.00 in0.0 mm 0.00 in0.0 mm
03:29 PM 63.2°F17.3°C 51.2°F10.7°C 65% 4.4 mph SE7.1 kmh SE 6.0 mph9.7 kmh 29.98 in1015.2 mb 0.00 in0.0 mm 0.00 in0.0 mm 0.00 in0.0 mm
03:30 PM 63.2°F17.3°C 51.2°F10.7°C 65% 5.1 mph SE8.2 kmh SE 7.0 mph11.3 kmh 29.98 in1015.2 mb 0.00 in0.0 mm 0.00 in0.0 mm 0.00 in0.0 mm
03:31 PM 63.2°F17.3°C 50.8°F10.4°C 64% 5.1 mph SE8.2 kmh SE 8.0 mph12.9 kmh 29.98 in1015.2 mb 0.00 in0.0 mm 0.00 in0.0 mm 0.00 in0.0 mm
03:32 PM 63.1°F17.3°C 51.1°F10.6°C 65% 3.4 mph SE5.5 kmh SE 8.0 mph12.9 kmh 29.98 in1015.2 mb 0.00 in0.0 mm 0.00 in0.0 mm 0.00 in0.0 mm
03:33 PM 63.1°F17.3°C 51.6°F10.9°C 66% 3.1 mph SE5.0 kmh SE 6.0 mph9.7 kmh 29.98 in1015.2 mb 0.00 in0.0 mm 0.00 in0.0 mm 0.00 in0.0 mm
03:34 PM 63.1°F17.3°C 51.1°F10.6°C 65% 3.2 mph SE5.1 kmh SE 6.0 mph9.7 kmh 29.98 in1015.2 mb 0.00 in0.0 mm 0.00 in0.0 mm 0.00 in0.0 mm
03:35 PM 63.1°F17.3°C 51.6°F10.9°C 66% 4.0 mph SE6.4 kmh SE 6.0 mph9.7 kmh 29.98 in1015.2 mb 0.00 in0.0 mm 0.00 in0.0 mm 0.00 in0.0 mm
03:36 PM 63.1°F17.3°C 51.6°F10.9°C 66% 3.4 mph SE5.5 kmh SE 6.0 mph9.7 kmh 29.98 in1015.2 mb 0.00 in0.0 mm 0.00 in0.0 mm 0.00 in0.0 mm
03:37 PM 63.1°F17.3°C 51.6°F10.9°C 66% 5.7 mph ESE9.2 kmh ESE 8.0 mph12.9 kmh 29.98 in1015.2 mb 0.00 in0.0 mm 0.00 in0.0 mm 0.00 in0.0 mm
03:38 PM 63.0°F17.2°C 51.5°F10.8°C 66% 5.5 mph SE8.9 kmh SE 8.0 mph12.9 kmh 29.98 in1015.2 mb 0.00 in0.0 mm 0.00 in0.0 mm 0.00 in0.0 mm
03:39 PM 63.0°F17.2°C 51.5°F10.8°C 66% 5.4 mph SE8.7 kmh SE 8.0 mph12.9 kmh 29.98 in1015.2 mb 0.00 in0.0 mm 0.00 in0.0 mm 0.00 in0.0 mm
03:40 PM 62.9°F17.2°C 51.8°F11.0°C 67% 4.9 mph SE7.9 kmh SE 7.0 mph11.3 kmh 29.98 in1015.2 mb 0.00 in0.0 mm 0.00 in0.0 mm 0.00 in0.0 mm
03:41 PM 62.8°F17.1°C 51.7°F10.9°C 67% 4.0 mph SE6.4 kmh SE 6.0 mph9.7 kmh 29.98 in1015.2 mb 0.00 in0.0 mm 0.00 in0.0 mm 0.00 in0.0 mm
03:42 PM 62.8°F17.1°C 51.7°F10.9°C 67% 3.2 mph SE5.1 kmh SE 6.0 mph9.7 kmh 29.98 in1015.2 mb 0.00 in0.0 mm 0.00 in0.0 mm 0.00 in0.0 mm
03:43 PM 62.7°F17.1°C 52.0°F11.1°C 68% 3.5 mph SE5.6 kmh SE 7.0 mph11.3 kmh 29.98 in1015.2 mb 0.00 in0.0 mm 0.00 in0.0 mm 0.00 in0.0 mm
03:44 PM 62.7°F17.1°C 52.0°F11.1°C 68% 4.4 mph SE7.1 kmh SE 7.0 mph11.3 kmh 29.98 in1015.2 mb 0.00 in0.0 mm 0.00 in0.0 mm 0.00 in0.0 mm
03:45 PM 62.7°F17.1°C 52.4°F11.3°C 69% 3.5 mph ESE5.6 kmh ESE 7.0 mph11.3 kmh 29.98 in1015.2 mb 0.00 in0.0 mm 0.00 in0.0 mm 0.00 in0.0 mm
03:46 PM 62.6°F17.0°C 52.3°F11.3°C 69% 3.9 mph ESE6.3 kmh ESE 6.0 mph9.7 kmh 29.98 in1015.2 mb 0.00 in0.0 mm 0.00 in0.0 mm 0.00 in0.0 mm
03:47 PM 62.6°F17.0°C 52.3°F11.3°C 69% 5.1 mph ESE8.2 kmh ESE 7.0 mph11.3 kmh 29.98 in1015.2 mb 0.00 in0.0 mm 0.00 in0.0 mm 0.00 in0.0 mm
03:48 PM 62.6°F17.0°C 52.3°F11.3°C 69% 6.4 mph ESE10.3 kmh ESE 9.0 mph14.5 kmh 29.98 in1015.2 mb 0.00 in0.0 mm 0.00 in0.0 mm 0.00 in0.0 mm
03:49 PM 62.5°F16.9°C 52.6°F11.4°C 70% 5.4 mph ESE8.7 kmh ESE 10.0 mph16.1 kmh 29.98 in1015.2 mb 0.00 in0.0 mm 0.00 in0.0 mm 0.00 in0.0 mm
03:50 PM 62.5°F16.9°C 52.6°F11.4°C 70% 6.0 mph ESE9.7 kmh ESE 10.0 mph16.1 kmh 29.98 in1015.2 mb 0.00 in0.0 mm 0.00 in0.0 mm 0.00 in0.0 mm
03:51 PM 62.4°F16.9°C 52.5°F11.4°C 70% 7.1 mph E11.4 kmh E 11.0 mph17.7 kmh 29.98 in1015.2 mb 0.00 in0.0 mm 0.00 in0.0 mm 0.00 in0.0 mm
03:52 PM 62.4°F16.9°C 52.5°F11.4°C 70% 9.3 mph E15.0 kmh E 11.0 mph17.7 kmh 29.98 in1015.2 mb 0.00 in0.0 mm 0.00 in0.0 mm 0.00 in0.0 mm
03:53 PM 62.3°F16.8°C 52.8°F11.6°C 71% 7.9 mph E12.7 kmh E 12.0 mph19.3 kmh 29.98 in1015.2 mb 0.00 in0.0 mm 0.00 in0.0 mm 0.00 in0.0 mm
03:54 PM 62.3°F16.8°C 52.4°F11.3°C 70% 8.2 mph E13.2 kmh E 12.0 mph19.3 kmh 29.98 in1015.2 mb 0.00 in0.0 mm 0.00 in0.0 mm 0.00 in0.0 mm
03:55 PM 62.2°F16.8°C 52.7°F11.5°C 71% 5.3 mph ESE8.5 kmh ESE 11.0 mph17.7 kmh 29.98 in1015.2 mb 0.00 in0.0 mm 0.00 in0.0 mm 0.00 in0.0 mm
03:56 PM 62.2°F16.8°C 52.3°F11.3°C 70% 6.7 mph ESE10.8 kmh ESE 9.0 mph14.5 kmh 29.98 in1015.2 mb 0.00 in0.0 mm 0.00 in0.0 mm 0.00 in0.0 mm
03:57 PM 62.2°F16.8°C 52.3°F11.3°C 70% 6.0 mph ESE9.7 kmh ESE 8.0 mph12.9 kmh 29.98 in1015.2 mb 0.00 in0.0 mm 0.00 in0.0 mm 0.00 in0.0 mm
03:58 PM 62.2°F16.8°C 51.9°F11.1°C 69% 7.0 mph E11.3 kmh E 9.0 mph14.5 kmh 29.98 in1015.2 mb 0.00 in0.0 mm 0.00 in0.0 mm 0.00 in0.0 mm
03:59 PM 62.2°F16.8°C 51.9°F11.1°C 69% 9.0 mph E14.5 kmh E 11.0 mph17.7 kmh 29.98 in1015.2 mb 0.00 in0.0 mm 0.00 in0.0 mm 0.00 in0.0 mm
04:00 PM 62.0°F16.7°C 51.7°F10.9°C 69% 8.5 mph E13.7 kmh E 11.0 mph17.7 kmh 29.98 in1015.2 mb 0.00 in0.0 mm 0.00 in0.0 mm 0.00 in0.0 mm
04:01 PM 62.0°F16.7°C 51.7°F10.9°C 69% 8.3 mph E13.4 kmh E 11.0 mph17.7 kmh 29.98 in1015.2 mb 0.00 in0.0 mm 0.00 in0.0 mm 0.00 in0.0 mm
04:02 PM 62.0°F16.7°C 51.7°F10.9°C 69% 8.4 mph E13.5 kmh E 12.0 mph19.3 kmh 29.98 in1015.2 mb 0.00 in0.0 mm 0.00 in0.0 mm 0.00 in0.0 mm
04:03 PM 61.9°F16.6°C 51.6°F10.9°C 69% 8.6 mph E13.8 kmh E 12.0 mph19.3 kmh 29.98 in1015.2 mb 0.00 in0.0 mm 0.00 in0.0 mm 0.00 in0.0 mm
04:04 PM 61.9°F16.6°C 51.2°F10.7°C 68% 9.0 mph E14.5 kmh E 11.0 mph17.7 kmh 29.98 in1015.2 mb 0.00 in0.0 mm 0.00 in0.0 mm 0.00 in0.0 mm
04:05 PM 61.8°F16.6°C 51.1°F10.6°C 68% 11.3 mph E18.2 kmh E 14.0 mph22.5 kmh 29.98 in1015.2 mb 0.00 in0.0 mm 0.00 in0.0 mm 0.00 in0.0 mm
04:06 PM 61.8°F16.6°C 51.1°F10.6°C 68% 12.2 mph ENE19.6 kmh ENE 14.0 mph22.5 kmh 29.98 in1015.2 mb 0.00 in0.0 mm 0.00 in0.0 mm 0.00 in0.0 mm
04:07 PM 61.7°F16.5°C 51.4°F10.8°C 69% 10.9 mph E17.5 kmh E 15.0 mph24.1 kmh 29.98 in1015.2 mb 0.00 in0.0 mm 0.00 in0.0 mm 0.00 in0.0 mm
04:08 PM 61.6°F16.4°C 51.3°F10.7°C 69% 11.1 mph E17.9 kmh E 15.0 mph24.1 kmh 29.98 in1015.2 mb 0.00 in0.0 mm 0.00 in0.0 mm 0.00 in0.0 mm
04:09 PM 61.5°F16.4°C 51.6°F10.9°C 70% 10.1 mph E16.3 kmh E 13.0 mph20.9 kmh 29.98 in1015.2 mb 0.00 in0.0 mm 0.00 in0.0 mm 0.00 in0.0 mm
04:10 PM 61.4°F16.3°C 51.5°F10.8°C 70% 7.4 mph E11.9 kmh E 13.0 mph20.9 kmh 29.98 in1015.2 mb 0.00 in0.0 mm 0.00 in0.0 mm 0.00 in0.0 mm
04:11 PM 61.4°F16.3°C 51.5°F10.8°C 70% 8.6 mph E13.8 kmh E 13.0 mph20.9 kmh 29.98 in1015.2 mb 0.00 in0.0 mm 0.00 in0.0 mm 0.00 in0.0 mm
04:12 PM 61.3°F16.3°C 51.4°F10.8°C 70% 8.3 mph ENE13.4 kmh ENE 13.0 mph20.9 kmh 29.98 in1015.2 mb 0.00 in0.0 mm 0.00 in0.0 mm 0.00 in0.0 mm
04:13 PM 61.3°F16.3°C 51.4°F10.8°C 70% 8.4 mph E13.5 kmh E 11.0 mph17.7 kmh 29.98 in1015.2 mb 0.00 in0.0 mm 0.00 in0.0 mm 0.00 in0.0 mm
04:14 PM 61.3°F16.3°C 51.4°F10.8°C 70% 8.2 mph ENE13.2 kmh ENE 12.0 mph19.3 kmh 29.98 in1015.2 mb 0.00 in0.0 mm 0.00 in0.0 mm 0.00 in0.0 mm
04:15 PM 61.3°F16.3°C 51.0°F10.6°C 69% 7.8 mph E12.6 kmh E 12.0 mph19.3 kmh 29.98 in1015.2 mb 0.00 in0.0 mm 0.00 in0.0 mm 0.00 in0.0 mm
04:16 PM 61.4°F16.3°C 51.5°F10.8°C 70% 7.2 mph ENE11.6 kmh ENE 10.0 mph16.1 kmh 29.98 in1015.2 mb 0.00 in0.0 mm 0.00 in0.0 mm 0.00 in0.0 mm
04:17 PM 61.4°F16.3°C 51.1°F10.6°C 69% 9.1 mph ENE14.6 kmh ENE 12.0 mph19.3 kmh 29.98 in1015.2 mb 0.00 in0.0 mm 0.00 in0.0 mm 0.00 in0.0 mm
04:18 PM 61.4°F16.3°C 51.1°F10.6°C 69% 7.0 mph ENE11.3 kmh ENE 9.0 mph14.5 kmh 29.98 in1015.2 mb 0.00 in0.0 mm 0.00 in0.0 mm 0.00 in0.0 mm
04:19 PM 61.5°F16.4°C 51.6°F10.9°C 70% 7.0 mph E11.3 kmh E 8.0 mph12.9 kmh 29.98 in1015.2 mb 0.00 in0.0 mm 0.00 in0.0 mm 0.00 in0.0 mm
04:20 PM 61.5°F16.4°C 51.2°F10.7°C 69% 7.0 mph ENE11.3 kmh ENE 10.0 mph16.1 kmh 29.98 in1015.2 mb 0.00 in0.0 mm 0.00 in0.0 mm 0.00 in0.0 mm
04:21 PM 61.6°F16.4°C 51.7°F10.9°C 70% 5.0 mph ENE8.0 kmh ENE 9.0 mph14.5 kmh 29.98 in1015.2 mb 0.00 in0.0 mm 0.00 in0.0 mm 0.00 in0.0 mm
04:22 PM 61.7°F16.5°C 51.8°F11.0°C 70% 6.5 mph ENE10.5 kmh ENE 10.0 mph16.1 kmh 29.98 in1015.2 mb 0.00 in0.0 mm 0.00 in0.0 mm 0.00 in0.0 mm
04:23 PM 61.8°F16.6°C 51.9°F11.1°C 70% 5.5 mph ENE8.9 kmh ENE 9.0 mph14.5 kmh 29.98 in1015.2 mb 0.00 in0.0 mm 0.00 in0.0 mm 0.00 in0.0 mm
04:24 PM 61.8°F16.6°C 51.9°F11.1°C 70% 5.1 mph ENE8.2 kmh ENE 9.0 mph14.5 kmh 29.98 in1015.2 mb 0.00 in0.0 mm 0.00 in0.0 mm 0.00 in0.0 mm
04:25 PM 61.9°F16.6°C 51.6°F10.9°C 69% 7.0 mph E11.3 kmh E 10.0 mph16.1 kmh 29.98 in1015.2 mb 0.00 in0.0 mm 0.00 in0.0 mm 0.00 in0.0 mm
04:26 PM 61.9°F16.6°C 51.2°F10.7°C 68% 6.9 mph E11.1 kmh E 10.0 mph16.1 kmh 29.98 in1015.2 mb 0.00 in0.0 mm 0.00 in0.0 mm 0.00 in0.0 mm
04:27 PM 62.0°F16.7°C 51.3°F10.7°C 68% 7.3 mph ENE11.7 kmh ENE 9.0 mph14.5 kmh 29.98 in1015.2 mb 0.00 in0.0 mm 0.00 in0.0 mm 0.00 in0.0 mm
04:28 PM 62.0°F16.7°C 51.3°F10.7°C 68% 5.9 mph ENE9.5 kmh ENE 9.0 mph14.5 kmh 29.98 in1015.2 mb 0.00 in0.0 mm 0.00 in0.0 mm 0.00 in0.0 mm
04:29 PM 62.0°F16.7°C 51.3°F10.7°C 68% 5.1 mph ENE8.2 kmh ENE 8.0 mph12.9 kmh 29.98 in1015.2 mb 0.00 in0.0 mm 0.00 in0.0 mm 0.00 in0.0 mm
04:30 PM 62.0°F16.7°C 51.7°F10.9°C 69% 6.2 mph E10.0 kmh E 8.0 mph12.9 kmh 29.98 in1015.2 mb 0.00 in0.0 mm 0.00 in0.0 mm 0.00 in0.0 mm
04:31 PM 62.1°F16.7°C 51.8°F11.0°C 69% 4.8 mph ENE7.7 kmh ENE 8.0 mph12.9 kmh 29.98 in1015.2 mb 0.00 in0.0 mm 0.00 in0.0 mm 0.00 in0.0 mm
04:32 PM 62.2°F16.8°C 51.9°F11.1°C 69% 4.3 mph E6.9 kmh E 7.0 mph11.3 kmh 29.98 in1015.2 mb 0.00 in0.0 mm 0.00 in0.0 mm 0.00 in0.0 mm
04:33 PM 62.3°F16.8°C 52.4°F11.3°C 70% 4.9 mph E7.9 kmh E 8.0 mph12.9 kmh 29.98 in1015.2 mb 0.00 in0.0 mm 0.00 in0.0 mm 0.00 in0.0 mm
04:34 PM 62.4°F16.9°C 52.1°F11.2°C 69% 5.2 mph E8.4 kmh E 8.0 mph12.9 kmh 29.98 in1015.2 mb 0.00 in0.0 mm 0.00 in0.0 mm 0.00 in0.0 mm
04:35 PM 62.4°F16.9°C 52.1°F11.2°C 69% 6.6 mph E10.6 kmh E 8.0 mph12.9 kmh 29.98 in1015.2 mb 0.00 in0.0 mm 0.00 in0.0 mm 0.00 in0.0 mm
04:36 PM 62.4°F16.9°C 52.1°F11.2°C 69% 4.3 mph ENE6.9 kmh ENE 7.0 mph11.3 kmh 29.98 in1015.2 mb 0.00 in0.0 mm 0.00 in0.0 mm 0.00 in0.0 mm
04:37 PM 62.5°F16.9°C 52.2°F11.2°C 69% 6.9 mph ENE11.1 kmh ENE 11.0 mph17.7 kmh 29.98 in1015.2 mb 0.00 in0.0 mm 0.00 in0.0 mm 0.00 in0.0 mm
04:38 PM 62.6°F17.0°C 52.3°F11.3°C 69% 7.8 mph E12.6 kmh E 11.0 mph17.7 kmh 29.98 in1015.2 mb 0.00 in0.0 mm 0.00 in0.0 mm 0.00 in0.0 mm
04:39 PM 62.6°F17.0°C 52.3°F11.3°C 69% 5.1 mph E8.2 kmh E 10.0 mph16.1 kmh 29.98 in1015.2 mb 0.00 in0.0 mm 0.00 in0.0 mm 0.00 in0.0 mm
04:40 PM 62.6°F17.0°C 52.3°F11.3°C 69% 3.8 mph ENE6.1 kmh ENE 8.0 mph12.9 kmh 29.98 in1015.2 mb 0.00 in0.0 mm 0.00 in0.0 mm 0.00 in0.0 mm
04:41 PM 62.6°F17.0°C 52.7°F11.5°C 70% 6.5 mph E10.5 kmh E 9.0 mph14.5 kmh 29.98 in1015.2 mb 0.00 in0.0 mm 0.00 in0.0 mm 0.00 in0.0 mm
04:42 PM 62.6°F17.0°C 52.3°F11.3°C 69% 4.4 mph ENE7.1 kmh ENE 9.0 mph14.5 kmh 29.98 in1015.2 mb 0.00 in0.0 mm 0.00 in0.0 mm 0.00 in0.0 mm
04:43 PM 62.5°F16.9°C 52.6°F11.4°C 70% 3.6 mph ENE5.8 kmh ENE 6.0 mph9.7 kmh 29.98 in1015.2 mb 0.00 in0.0 mm 0.00 in0.0 mm 0.00 in0.0 mm
04:44 PM 62.6°F17.0°C 52.7°F11.5°C 70% 4.3 mph NE6.9 kmh NE 6.0 mph9.7 kmh 29.98 in1015.2 mb 0.00 in0.0 mm 0.00 in0.0 mm 0.00 in0.0 mm
04:45 PM 62.6°F17.0°C 52.7°F11.5°C 70% 4.3 mph ENE6.9 kmh ENE 6.0 mph9.7 kmh 29.98 in1015.2 mb 0.00 in0.0 mm 0.00 in0.0 mm 0.00 in0.0 mm
04:46 PM 62.6°F17.0°C 52.7°F11.5°C 70% 4.6 mph NE7.4 kmh NE 6.0 mph9.7 kmh 29.98 in1015.2 mb 0.00 in0.0 mm 0.00 in0.0 mm 0.00 in0.0 mm
04:47 PM 62.5°F16.9°C 52.6°F11.4°C 70% 5.0 mph NE8.0 kmh NE 6.0 mph9.7 kmh 29.98 in1015.2 mb 0.00 in0.0 mm 0.00 in0.0 mm 0.00 in0.0 mm
04:48 PM 62.6°F17.0°C 52.7°F11.5°C 70% 4.7 mph NE7.6 kmh NE 6.0 mph9.7 kmh 29.98 in1015.2 mb 0.00 in0.0 mm 0.00 in0.0 mm 0.00 in0.0 mm
04:49 PM 62.5°F16.9°C 52.6°F11.4°C 70% 4.4 mph NE7.1 kmh NE 6.0 mph9.7 kmh 29.98 in1015.2 mb 0.00 in0.0 mm 0.00 in0.0 mm 0.00 in0.0 mm
04:50 PM 62.5°F16.9°C 52.6°F11.4°C 70% 4.5 mph ENE7.2 kmh ENE 7.0 mph11.3 kmh 29.98 in1015.2 mb 0.00 in0.0 mm 0.00 in0.0 mm 0.00 in0.0 mm
04:51 PM 62.5°F16.9°C 52.6°F11.4°C 70% 4.0 mph E6.4 kmh E 7.0 mph11.3 kmh 29.98 in1015.2 mb 0.00 in0.0 mm 0.00 in0.0 mm 0.00 in0.0 mm
04:52 PM 62.5°F16.9°C 53.0°F11.7°C 71% 2.5 mph NE4.0 kmh NE 6.0 mph9.7 kmh 29.98 in1015.2 mb 0.00 in0.0 mm 0.00 in0.0 mm 0.00 in0.0 mm
04:53 PM 62.6°F17.0°C 53.1°F11.7°C 71% 3.9 mph NE6.3 kmh NE 5.0 mph8.0 kmh 29.98 in1015.2 mb 0.00 in0.0 mm 0.00 in0.0 mm 0.00 in0.0 mm
04:54 PM 62.5°F16.9°C 53.0°F11.7°C 71% 3.3 mph NE5.3 kmh NE 5.0 mph8.0 kmh 29.98 in1015.2 mb 0.00 in0.0 mm 0.00 in0.0 mm 0.00 in0.0 mm
04:55 PM 62.6°F17.0°C 52.7°F11.5°C 70% 4.2 mph ENE6.8 kmh ENE 8.0 mph12.9 kmh 29.98 in1015.2 mb 0.00 in0.0 mm 0.00 in0.0 mm 0.00 in0.0 mm
04:56 PM 62.7°F17.1°C 53.2°F11.8°C 71% 3.1 mph E5.0 kmh E 8.0 mph12.9 kmh 29.98 in1015.2 mb 0.00 in0.0 mm 0.00 in0.0 mm 0.00 in0.0 mm
04:57 PM 62.8°F17.1°C 52.9°F11.6°C 70% 3.8 mph ENE6.1 kmh ENE 5.0 mph8.0 kmh 29.98 in1015.2 mb 0.00 in0.0 mm 0.00 in0.0 mm 0.00 in0.0 mm
04:58 PM 62.9°F17.2°C 53.0°F11.7°C 70% 5.1 mph ENE8.2 kmh ENE 8.0 mph12.9 kmh 29.98 in1015.2 mb 0.00 in0.0 mm 0.00 in0.0 mm 0.00 in0.0 mm
04:59 PM 63.0°F17.2°C 53.1°F11.7°C 70% 6.1 mph ESE9.8 kmh ESE 8.0 mph12.9 kmh 29.98 in1015.2 mb 0.00 in0.0 mm 0.00 in0.0 mm 0.00 in0.0 mm
05:00 PM 63.1°F17.3°C 53.2°F11.8°C 70% 4.2 mph ENE6.8 kmh ENE 8.0 mph12.9 kmh 29.98 in1015.2 mb 0.00 in0.0 mm 0.00 in0.0 mm 0.00 in0.0 mm
05:01 PM 63.2°F17.3°C 53.2°F11.8°C 70% 3.3 mph ENE5.3 kmh ENE 7.0 mph11.3 kmh 29.98 in1015.2 mb 0.00 in0.0 mm 0.00 in0.0 mm 0.00 in0.0 mm
05:02 PM 63.2°F17.3°C 53.2°F11.8°C 70% 5.3 mph ENE8.5 kmh ENE 8.0 mph12.9 kmh 29.98 in1015.2 mb 0.00 in0.0 mm 0.00 in0.0 mm 0.00 in0.0 mm
05:03 PM 63.2°F17.3°C 53.2°F11.8°C 70% 6.0 mph NE9.7 kmh NE 9.0 mph14.5 kmh 29.98 in1015.2 mb 0.00 in0.0 mm 0.00 in0.0 mm 0.00 in0.0 mm
05:04 PM 63.2°F17.3°C 53.2°F11.8°C 70% 6.1 mph ENE9.8 kmh ENE 9.0 mph14.5 kmh 29.98 in1015.2 mb 0.00 in0.0 mm 0.00 in0.0 mm 0.00 in0.0 mm
05:05 PM 63.1°F17.3°C 53.2°F11.8°C 70% 6.1 mph ENE9.8 kmh ENE 9.0 mph14.5 kmh 29.98 in1015.2 mb 0.00 in0.0 mm 0.00 in0.0 mm 0.00 in0.0 mm
05:06 PM 63.1°F17.3°C 53.5°F11.9°C 71% 5.5 mph ENE8.9 kmh ENE 9.0 mph14.5 kmh 29.98 in1015.2 mb 0.00 in0.0 mm 0.00 in0.0 mm 0.00 in0.0 mm
05:07 PM 63.0°F17.2°C 53.1°F11.7°C 70% 5.3 mph ENE8.5 kmh ENE 8.0 mph12.9 kmh 29.98 in1015.2 mb 0.00 in0.0 mm 0.00 in0.0 mm 0.00 in0.0 mm
05:08 PM 63.0°F17.2°C 53.1°F11.7°C 70% 4.6 mph NE7.4 kmh NE 7.0 mph11.3 kmh 29.98 in1015.2 mb 0.00 in0.0 mm 0.00 in0.0 mm 0.00 in0.0 mm
05:09 PM 63.0°F17.2°C 53.1°F11.7°C 70% 4.7 mph NE7.6 kmh NE 8.0 mph12.9 kmh 29.98 in1015.2 mb 0.00 in0.0 mm 0.00 in0.0 mm 0.00 in0.0 mm
05:10 PM 63.0°F17.2°C 53.4°F11.9°C 71% 5.5 mph ENE8.9 kmh ENE 8.0 mph12.9 kmh 29.98 in1015.2 mb 0.00 in0.0 mm 0.00 in0.0 mm 0.00 in0.0 mm
05:11 PM 63.0°F17.2°C 53.4°F11.9°C 71% 5.1 mph ENE8.2 kmh ENE 8.0 mph12.9 kmh 29.98 in1015.2 mb 0.00 in0.0 mm 0.00 in0.0 mm 0.00 in0.0 mm
05:12 PM 63.0°F17.2°C 53.4°F11.9°C 71% 5.1 mph ENE8.2 kmh ENE 8.0 mph12.9 kmh 29.98 in1015.2 mb 0.00 in0.0 mm 0.00 in0.0 mm 0.00 in0.0 mm
05:13 PM 63.0°F17.2°C 53.4°F11.9°C 71% 4.9 mph ENE7.9 kmh ENE 8.0 mph12.9 kmh 29.98 in1015.2 mb 0.00 in0.0 mm 0.00 in0.0 mm 0.00 in0.0 mm
05:14 PM 62.9°F17.2°C 53.7°F12.1°C 72% 4.0 mph ENE6.4 kmh ENE 6.0 mph9.7 kmh 29.98 in1015.2 mb 0.00 in0.0 mm 0.00 in0.0 mm 0.00 in0.0 mm
05:15 PM 62.9°F17.2°C 53.7°F12.1°C 72% 4.0 mph NE6.4 kmh NE 5.0 mph8.0 kmh 29.98 in1015.2 mb 0.00 in0.0 mm 0.00 in0.0 mm 0.00 in0.0 mm
05:16 PM 63.0°F17.2°C 53.8°F12.1°C 72% 3.0 mph NE4.8 kmh NE 5.0 mph8.0 kmh 29.98 in1015.2 mb 0.00 in0.0 mm 0.00 in0.0 mm 0.00 in0.0 mm
05:17 PM 62.9°F17.2°C 53.7°F12.1°C 72% 4.7 mph ENE7.6 kmh ENE 5.0 mph8.0 kmh 29.98 in1015.2 mb 0.00 in0.0 mm 0.00 in0.0 mm 0.00 in0.0 mm
05:18 PM 62.9°F17.2°C 53.7°F12.1°C 72% 4.2 mph NE6.8 kmh NE 5.0 mph8.0 kmh 29.98 in1015.2 mb 0.00 in0.0 mm 0.00 in0.0 mm 0.00 in0.0 mm
05:19 PM 62.9°F17.2°C 53.7°F12.1°C 72% 4.2 mph ENE6.8 kmh ENE 5.0 mph8.0 kmh 29.98 in1015.2 mb 0.00 in0.0 mm 0.00 in0.0 mm 0.00 in0.0 mm
05:20 PM 62.9°F17.2°C 53.7°F12.1°C 72% 3.7 mph NE6.0 kmh NE 5.0 mph8.0 kmh 29.98 in1015.2 mb 0.00 in0.0 mm 0.00 in0.0 mm 0.00 in0.0 mm
05:21 PM 62.9°F17.2°C 54.1°F12.3°C 73% 2.8 mph NE4.5 kmh NE 5.0 mph8.0 kmh 29.98 in1015.2 mb 0.00 in0.0 mm 0.00 in0.0 mm 0.00 in0.0 mm
05:22 PM 63.0°F17.2°C 54.2°F12.3°C 73% 3.2 mph NE5.1 kmh NE 5.0 mph8.0 kmh 29.98 in1015.2 mb 0.00 in0.0 mm 0.00 in0.0 mm 0.00 in0.0 mm
05:23 PM 63.0°F17.2°C 54.2°F12.3°C 73% 1.8 mph NE2.9 kmh NE 5.0 mph8.0 kmh 29.98 in1015.2 mb 0.00 in0.0 mm 0.00 in0.0 mm 0.00 in0.0 mm
05:24 PM 63.1°F17.3°C 54.3°F12.4°C 73% 3.4 mph NE5.5 kmh NE 5.0 mph8.0 kmh 29.98 in1015.2 mb 0.00 in0.0 mm 0.00 in0.0 mm 0.00 in0.0 mm
05:25 PM 63.2°F17.3°C 54.4°F12.4°C 73% 3.9 mph ENE6.3 kmh ENE 5.0 mph8.0 kmh 29.98 in1015.2 mb 0.00 in0.0 mm 0.00 in0.0 mm 0.00 in0.0 mm
05:26 PM 63.3°F17.4°C 54.1°F12.3°C 72% 3.8 mph ENE6.1 kmh ENE 5.0 mph8.0 kmh 29.98 in1015.2 mb 0.00 in0.0 mm 0.00 in0.0 mm 0.00 in0.0 mm
05:27 PM 63.3°F17.4°C 54.1°F12.3°C 72% 3.5 mph E5.6 kmh E 5.0 mph8.0 kmh 29.98 in1015.2 mb 0.00 in0.0 mm 0.00 in0.0 mm 0.00 in0.0 mm
05:28 PM 63.4°F17.4°C 54.6°F12.6°C 73% 3.3 mph E5.3 kmh E 6.0 mph9.7 kmh 29.98 in1015.2 mb 0.00 in0.0 mm 0.00 in0.0 mm 0.00 in0.0 mm
05:29 PM 63.4°F17.4°C 55.0°F12.8°C 74% 5.3 mph ESE8.5 kmh ESE 9.0 mph14.5 kmh 29.98 in1015.2 mb 0.00 in0.0 mm 0.00 in0.0 mm 0.00 in0.0 mm
05:30 PM 63.4°F17.4°C 53.4°F11.9°C 70% 7.7 mph ESE12.4 kmh ESE 9.0 mph14.5 kmh 29.98 in1015.2 mb 0.00 in0.0 mm 0.00 in0.0 mm 0.00 in0.0 mm
05:31 PM 63.4°F17.4°C 54.6°F12.6°C 73% 6.5 mph ESE10.5 kmh ESE 9.0 mph14.5 kmh 29.98 in1015.2 mb 0.00 in0.0 mm 0.00 in0.0 mm 0.00 in0.0 mm
05:32 PM 63.2°F17.3°C 53.2°F11.8°C 70% 8.4 mph ESE13.5 kmh ESE 12.0 mph19.3 kmh 29.98 in1015.2 mb 0.00 in0.0 mm 0.00 in0.0 mm 0.00 in0.0 mm
05:33 PM 63.1°F17.3°C 52.8°F11.6°C 69% 10.0 mph ESE16.1 kmh ESE 12.0 mph19.3 kmh 29.98 in1015.2 mb 0.00 in0.0 mm 0.00 in0.0 mm 0.00 in0.0 mm
05:34 PM 62.9°F17.2°C 52.6°F11.4°C 69% 8.0 mph ESE12.9 kmh ESE 9.0 mph14.5 kmh 29.97 in1014.9 mb 0.00 in0.0 mm 0.00 in0.0 mm 0.00 in0.0 mm
05:35 PM 62.7°F17.1°C 53.5°F11.9°C 72% 7.4 mph ESE11.9 kmh ESE 9.0 mph14.5 kmh 29.97 in1014.9 mb 0.00 in0.0 mm 0.00 in0.0 mm 0.00 in0.0 mm
05:36 PM 62.6°F17.0°C 53.4°F11.9°C 72% 6.4 mph ESE10.3 kmh ESE 9.0 mph14.5 kmh 29.97 in1014.9 mb 0.00 in0.0 mm 0.00 in0.0 mm 0.00 in0.0 mm
05:37 PM 62.5°F16.9°C 53.7°F12.1°C 73% 6.3 mph ESE10.1 kmh ESE 9.0 mph14.5 kmh 29.97 in1014.9 mb 0.00 in0.0 mm 0.00 in0.0 mm 0.00 in0.0 mm
05:38 PM 62.4°F16.9°C 53.6°F12.0°C 73% 5.9 mph ESE9.5 kmh ESE 9.0 mph14.5 kmh 29.97 in1014.9 mb 0.00 in0.0 mm 0.00 in0.0 mm 0.00 in0.0 mm
05:39 PM 62.3°F16.8°C 53.5°F11.9°C 73% 6.0 mph ESE9.7 kmh ESE 7.0 mph11.3 kmh 29.97 in1014.9 mb 0.00 in0.0 mm 0.00 in0.0 mm 0.00 in0.0 mm
05:40 PM 62.2°F16.8°C 53.8°F12.1°C 74% 6.0 mph SE9.7 kmh SE 9.0 mph14.5 kmh 29.97 in1014.9 mb 0.00 in0.0 mm 0.00 in0.0 mm 0.00 in0.0 mm
05:41 PM 62.2°F16.8°C 54.2°F12.3°C 75% 7.0 mph ESE11.3 kmh ESE 8.0 mph12.9 kmh 29.97 in1014.9 mb 0.00 in0.0 mm 0.00 in0.0 mm 0.00 in0.0 mm
05:42 PM 62.1°F16.7°C 54.4°F12.4°C 76% 5.6 mph ESE9.0 kmh ESE 8.0 mph12.9 kmh 29.97 in1014.9 mb 0.00 in0.0 mm 0.00 in0.0 mm 0.00 in0.0 mm
05:43 PM 62.0°F16.7°C 53.6°F12.0°C 74% 6.7 mph ESE10.8 kmh ESE 9.0 mph14.5 kmh 29.97 in1014.9 mb 0.00 in0.0 mm 0.00 in0.0 mm 0.00 in0.0 mm
05:44 PM 61.9°F16.6°C 53.5°F11.9°C 74% 6.3 mph ESE10.1 kmh ESE 9.0 mph14.5 kmh 29.97 in1014.9 mb 0.00 in0.0 mm 0.00 in0.0 mm 0.00 in0.0 mm
05:45 PM 61.8°F16.6°C 53.8°F12.1°C 75% 5.0 mph ESE8.0 kmh ESE 7.0 mph11.3 kmh 29.97 in1014.9 mb 0.00 in0.0 mm 0.00 in0.0 mm 0.00 in0.0 mm
05:46 PM 61.8°F16.6°C 53.8°F12.1°C 75% 5.0 mph ESE8.0 kmh ESE 8.0 mph12.9 kmh 29.97 in1014.9 mb 0.00 in0.0 mm 0.00 in0.0 mm 0.00 in0.0 mm
05:47 PM 61.7°F16.5°C 53.7°F12.1°C 75% 6.2 mph ESE10.0 kmh ESE 8.0 mph12.9 kmh 29.97 in1014.9 mb 0.00 in0.0 mm 0.00 in0.0 mm 0.00 in0.0 mm
05:48 PM 61.7°F16.5°C 53.7°F12.1°C 75% 6.0 mph ESE9.7 kmh ESE 8.0 mph12.9 kmh 29.97 in1014.9 mb 0.00 in0.0 mm 0.00 in0.0 mm 0.00 in0.0 mm
05:49 PM 61.6°F16.4°C 54.0°F12.2°C 76% 4.0 mph ESE6.4 kmh ESE 8.0 mph12.9 kmh 29.97 in1014.9 mb 0.00 in0.0 mm 0.00 in0.0 mm 0.00 in0.0 mm
05:50 PM 61.5°F16.4°C 53.9°F12.2°C 76% 7.0 mph ESE11.3 kmh ESE 9.0 mph14.5 kmh 29.97 in1014.9 mb 0.00 in0.0 mm 0.00 in0.0 mm 0.00 in0.0 mm
05:51 PM 61.4°F16.3°C 53.8°F12.1°C 76% 7.0 mph ESE11.3 kmh ESE 8.0 mph12.9 kmh 29.97 in1014.9 mb 0.00 in0.0 mm 0.00 in0.0 mm 0.00 in0.0 mm
05:52 PM 61.4°F16.3°C 54.5°F12.5°C 78% 7.0 mph ESE11.3 kmh ESE 8.0 mph12.9 kmh 29.97 in1014.9 mb 0.00 in0.0 mm 0.00 in0.0 mm 0.00 in0.0 mm
05:53 PM 61.3°F16.3°C 54.4°F12.4°C 78% 6.4 mph E10.3 kmh E 7.0 mph11.3 kmh 29.97 in1014.9 mb 0.00 in0.0 mm 0.00 in0.0 mm 0.00 in0.0 mm
05:54 PM 61.3°F16.3°C 54.4°F12.4°C 78% 6.0 mph ESE9.7 kmh ESE 9.0 mph14.5 kmh 29.97 in1014.9 mb 0.00 in0.0 mm 0.00 in0.0 mm 0.00 in0.0 mm
05:55 PM 61.2°F16.2°C 54.3°F12.4°C 78% 4.3 mph ESE6.9 kmh ESE 8.0 mph12.9 kmh 29.97 in1014.9 mb 0.00 in0.0 mm 0.00 in0.0 mm 0.00 in0.0 mm
05:56 PM 61.2°F16.2°C 54.3°F12.4°C 78% 6.0 mph E9.7 kmh E 8.0 mph12.9 kmh 29.97 in1014.9 mb 0.00 in0.0 mm 0.00 in0.0 mm 0.00 in0.0 mm
05:57 PM 61.2°F16.2°C 54.3°F12.4°C 78% 6.0 mph E9.7 kmh E 8.0 mph12.9 kmh 29.97 in1014.9 mb 0.00 in0.0 mm 0.00 in0.0 mm 0.00 in0.0 mm
05:58 PM 61.3°F16.3°C 54.4°F12.4°C 78% 5.0 mph E8.0 kmh E 7.0 mph11.3 kmh 29.97 in1014.9 mb 0.00 in0.0 mm 0.00 in0.0 mm 0.00 in0.0 mm
05:59 PM 61.2°F16.2°C 54.3°F12.4°C 78% 7.0 mph E11.3 kmh E 8.0 mph12.9 kmh 29.97 in1014.9 mb 0.00 in0.0 mm 0.00 in0.0 mm 0.00 in0.0 mm
06:00 PM 61.2°F16.2°C 53.9°F12.2°C 77% 6.1 mph E9.8 kmh E 8.0 mph12.9 kmh 29.97 in1014.9 mb 0.00 in0.0 mm 0.00 in0.0 mm 0.00 in0.0 mm
06:01 PM 61.2°F16.2°C 54.3°F12.4°C 78% 5.0 mph E8.0 kmh E 6.0 mph9.7 kmh 29.97 in1014.9 mb 0.00 in0.0 mm 0.00 in0.0 mm 0.00 in0.0 mm
06:02 PM 61.2°F16.2°C 54.3°F12.4°C 78% 5.0 mph E8.0 kmh E 7.0 mph11.3 kmh 29.97 in1014.9 mb 0.00 in0.0 mm 0.00 in0.0 mm 0.00 in0.0 mm
06:03 PM 61.2°F16.2°C 53.9°F12.2°C 77% 4.8 mph E7.7 kmh E 7.0 mph11.3 kmh 29.97 in1014.9 mb 0.00 in0.0 mm 0.00 in0.0 mm 0.00 in0.0 mm
06:04 PM 61.2°F16.2°C 53.9°F12.2°C 77% 5.8 mph E9.3 kmh E 7.0 mph11.3 kmh 29.97 in1014.9 mb 0.00 in0.0 mm 0.00 in0.0 mm 0.00 in0.0 mm
06:05 PM 61.2°F16.2°C 53.9°F12.2°C 77% 5.8 mph E9.3 kmh E 7.0 mph11.3 kmh 29.97 in1014.9 mb 0.00 in0.0 mm 0.00 in0.0 mm 0.00 in0.0 mm
06:06 PM 61.1°F16.2°C 53.8°F12.1°C 77% 3.5 mph ESE5.6 kmh ESE 7.0 mph11.3 kmh 29.97 in1014.9 mb 0.00 in0.0 mm 0.00 in0.0 mm 0.00 in0.0 mm
06:07 PM 61.1°F16.2°C 53.8°F12.1°C 77% 4.5 mph E7.2 kmh E 6.0 mph9.7 kmh 29.97 in1014.9 mb 0.00 in0.0 mm 0.00 in0.0 mm 0.00 in0.0 mm
06:08 PM 61.1°F16.2°C 53.8°F12.1°C 77% 5.0 mph E8.0 kmh E 7.0 mph11.3 kmh 29.97 in1014.9 mb 0.00 in0.0 mm 0.00 in0.0 mm 0.00 in0.0 mm
06:09 PM 61.1°F16.2°C 54.2°F12.3°C 78% 4.5 mph E7.2 kmh E 7.0 mph11.3 kmh 29.97 in1014.9 mb 0.00 in0.0 mm 0.00 in0.0 mm 0.00 in0.0 mm
06:10 PM 61.1°F16.2°C 54.2°F12.3°C 78% 4.0 mph ESE6.4 kmh ESE 6.0 mph9.7 kmh 29.97 in1014.9 mb 0.00 in0.0 mm 0.00 in0.0 mm 0.00 in0.0 mm
06:11 PM 61.1°F16.2°C 54.2°F12.3°C 78% 5.0 mph E8.0 kmh E 6.0 mph9.7 kmh 29.97 in1014.9 mb 0.00 in0.0 mm 0.00 in0.0 mm 0.00 in0.0 mm
06:12 PM 61.1°F16.2°C 53.8°F12.1°C 77% 3.7 mph E6.0 kmh E 4.0 mph6.4 kmh 29.97 in1014.9 mb 0.00 in0.0 mm 0.00 in0.0 mm 0.00 in0.0 mm
06:13 PM 61.1°F16.2°C 54.2°F12.3°C 78% 4.3 mph E6.9 kmh E 6.0 mph9.7 kmh 29.97 in1014.9 mb 0.00 in0.0 mm 0.00 in0.0 mm 0.00 in0.0 mm
06:14 PM 61.1°F16.2°C 54.2°F12.3°C 78% 4.5 mph E7.2 kmh E 6.0 mph9.7 kmh 29.97 in1014.9 mb 0.00 in0.0 mm 0.00 in0.0 mm 0.00 in0.0 mm
06:15 PM 61.1°F16.2°C 53.8°F12.1°C 77% 3.6 mph E5.8 kmh E 6.0 mph9.7 kmh 29.97 in1014.9 mb 0.00 in0.0 mm 0.00 in0.0 mm 0.00 in0.0 mm
06:16 PM 61.1°F16.2°C 54.2°F12.3°C 78% 3.8 mph E6.1 kmh E 6.0 mph9.7 kmh 29.97 in1014.9 mb 0.00 in0.0 mm 0.00 in0.0 mm 0.00 in0.0 mm
06:17 PM 61.1°F16.2°C 54.2°F12.3°C 78% 3.4 mph E5.5 kmh E 6.0 mph9.7 kmh 29.97 in1014.9 mb 0.00 in0.0 mm 0.00 in0.0 mm 0.00 in0.0 mm
06:18 PM 61.1°F16.2°C 54.2°F12.3°C 78% 4.6 mph E7.4 kmh E 7.0 mph11.3 kmh 29.97 in1014.9 mb 0.00 in0.0 mm 0.00 in0.0 mm 0.00 in0.0 mm
06:19 PM 61.1°F16.2°C 53.8°F12.1°C 77% 3.8 mph E6.1 kmh E 7.0 mph11.3 kmh 29.97 in1014.9 mb 0.00 in0.0 mm 0.00 in0.0 mm 0.00 in0.0 mm
06:20 PM 61.1°F16.2°C 54.2°F12.3°C 78% 3.1 mph E5.0 kmh E 6.0 mph9.7 kmh 29.97 in1014.9 mb 0.00 in0.0 mm 0.00 in0.0 mm 0.00 in0.0 mm
06:21 PM 61.0°F16.1°C 54.1°F12.3°C 78% 4.2 mph E6.8 kmh E 6.0 mph9.7 kmh 29.97 in1014.9 mb 0.00 in0.0 mm 0.00 in0.0 mm 0.00 in0.0 mm
06:22 PM 60.9°F16.1°C 54.0°F12.2°C 78% 4.5 mph E7.2 kmh E 7.0 mph11.3 kmh 29.97 in1014.9 mb 0.00 in0.0 mm 0.00 in0.0 mm 0.00 in0.0 mm
06:23 PM 60.9°F16.1°C 54.0°F12.2°C 78% 3.4 mph E5.5 kmh E 7.0 mph11.3 kmh 29.97 in1014.9 mb 0.00 in0.0 mm 0.00 in0.0 mm 0.00 in0.0 mm
06:24 PM 60.9°F16.1°C 54.0°F12.2°C 78% 4.0 mph E6.4 kmh E 6.0 mph9.7 kmh 29.97 in1014.9 mb 0.00 in0.0 mm 0.00 in0.0 mm 0.00 in0.0 mm
06:25 PM 60.9°F16.1°C 54.0°F12.2°C 78% 4.0 mph E6.4 kmh E 6.0 mph9.7 kmh 29.97 in1014.9 mb 0.00 in0.0 mm 0.00 in0.0 mm 0.00 in0.0 mm
06:26 PM 60.9°F16.1°C 54.0°F12.2°C 78% 4.0 mph E6.4 kmh E 5.0 mph8.0 kmh 29.97 in1014.9 mb 0.00 in0.0 mm 0.00 in0.0 mm 0.00 in0.0 mm
06:27 PM 60.9°F16.1°C 54.0°F12.2°C 78% 3.0 mph ENE4.8 kmh ENE 5.0 mph8.0 kmh 29.97 in1014.9 mb 0.00 in0.0 mm 0.00 in0.0 mm 0.00 in0.0 mm
06:28 PM 60.9°F16.1°C 54.0°F12.2°C 78% 3.7 mph E6.0 kmh E 4.0 mph6.4 kmh 29.97 in1014.9 mb 0.00 in0.0 mm 0.00 in0.0 mm 0.00 in0.0 mm
06:29 PM 60.9°F16.1°C 54.0°F12.2°C 78% 4.0 mph ENE6.4 kmh ENE 5.0 mph8.0 kmh 29.97 in1014.9 mb 0.00 in0.0 mm 0.00 in0.0 mm 0.00 in0.0 mm
06:30 PM 60.9°F16.1°C 54.0°F12.2°C 78% 4.4 mph ENE7.1 kmh ENE 7.0 mph11.3 kmh 29.97 in1014.9 mb 0.00 in0.0 mm 0.00 in0.0 mm 0.00 in0.0 mm
06:31 PM 60.9°F16.1°C 54.0°F12.2°C 78% 3.5 mph ENE5.6 kmh ENE 7.0 mph11.3 kmh 29.97 in1014.9 mb 0.00 in0.0 mm 0.00 in0.0 mm 0.00 in0.0 mm
06:32 PM 61.0°F16.1°C 54.1°F12.3°C 78% 3.8 mph ENE6.1 kmh ENE 5.0 mph8.0 kmh 29.97 in1014.9 mb 0.00 in0.0 mm 0.00 in0.0 mm 0.00 in0.0 mm
06:33 PM 60.9°F16.1°C 54.0°F12.2°C 78% 4.5 mph E7.2 kmh E 7.0 mph11.3 kmh 29.97 in1014.9 mb 0.00 in0.0 mm 0.00 in0.0 mm 0.00 in0.0 mm
06:34 PM 60.9°F16.1°C 53.6°F12.0°C 77% 5.0 mph E8.0 kmh E 8.0 mph12.9 kmh 29.97 in1014.9 mb 0.00 in0.0 mm 0.00 in0.0 mm 0.00 in0.0 mm
06:35 PM 60.8°F16.0°C 53.5°F11.9°C 77% 6.5 mph E10.5 kmh E 8.0 mph12.9 kmh 29.97 in1014.9 mb 0.00 in0.0 mm 0.00 in0.0 mm 0.00 in0.0 mm
06:36 PM 60.8°F16.0°C 53.5°F11.9°C 77% 4.5 mph E7.2 kmh E 8.0 mph12.9 kmh 29.97 in1014.9 mb 0.00 in0.0 mm 0.00 in0.0 mm 0.00 in0.0 mm
06:37 PM 60.8°F16.0°C 53.9°F12.2°C 78% 4.0 mph E6.4 kmh E 6.0 mph9.7 kmh 29.97 in1014.9 mb 0.00 in0.0 mm 0.00 in0.0 mm 0.00 in0.0 mm
06:38 PM 60.7°F15.9°C 53.8°F12.1°C 78% 5.0 mph E8.0 kmh E 7.0 mph11.3 kmh 29.97 in1014.9 mb 0.00 in0.0 mm 0.00 in0.0 mm 0.00 in0.0 mm
06:39 PM 60.7°F15.9°C 53.8°F12.1°C 78% 3.9 mph ENE6.3 kmh ENE 5.0 mph8.0 kmh 29.97 in1014.9 mb 0.00 in0.0 mm 0.00 in0.0 mm 0.00 in0.0 mm
06:40 PM 60.7°F15.9°C 53.8°F12.1°C 78% 5.2 mph E8.4 kmh E 8.0 mph12.9 kmh 29.97 in1014.9 mb 0.00 in0.0 mm 0.00 in0.0 mm 0.00 in0.0 mm
06:41 PM 60.6°F15.9°C 53.3°F11.8°C 77% 5.0 mph E8.0 kmh E 8.0 mph12.9 kmh 29.97 in1014.9 mb 0.00 in0.0 mm 0.00 in0.0 mm 0.00 in0.0 mm
06:42 PM 60.5°F15.8°C 53.3°F11.8°C 77% 5.9 mph E9.5 kmh E 7.0 mph11.3 kmh 29.97 in1014.9 mb 0.00 in0.0 mm 0.00 in0.0 mm 0.00 in0.0 mm
06:43 PM 60.5°F15.8°C 53.6°F12.0°C 78% 5.3 mph E8.5 kmh E 7.0 mph11.3 kmh 29.97 in1014.9 mb 0.00 in0.0 mm 0.00 in0.0 mm 0.00 in0.0 mm
06:44 PM 60.4°F15.8°C 53.5°F11.9°C 78% 3.9 mph E6.3 kmh E 7.0 mph11.3 kmh 29.97 in1014.9 mb 0.00 in0.0 mm 0.00 in0.0 mm 0.00 in0.0 mm
06:45 PM 60.4°F15.8°C 53.5°F11.9°C 78% 4.8 mph ENE7.7 kmh ENE 7.0 mph11.3 kmh 29.97 in1014.9 mb 0.00 in0.0 mm 0.00 in0.0 mm 0.00 in0.0 mm
06:46 PM 60.3°F15.7°C 53.4°F11.9°C 78% 4.5 mph E7.2 kmh E 7.0 mph11.3 kmh 29.98 in1015.2 mb 0.00 in0.0 mm 0.00 in0.0 mm 0.00 in0.0 mm
06:47 PM 60.2°F15.7°C 53.3°F11.8°C 78% 4.7 mph E7.6 kmh E 7.0 mph11.3 kmh 29.98 in1015.2 mb 0.00 in0.0 mm 0.00 in0.0 mm 0.00 in0.0 mm
06:48 PM 60.2°F15.7°C 53.3°F11.8°C 78% 4.7 mph E7.6 kmh E 7.0 mph11.3 kmh 29.98 in1015.2 mb 0.00 in0.0 mm 0.00 in0.0 mm 0.00 in0.0 mm
06:49 PM 60.1°F15.6°C 53.2°F11.8°C 78% 3.8 mph E6.1 kmh E 7.0 mph11.3 kmh 29.98 in1015.2 mb 0.00 in0.0 mm 0.00 in0.0 mm 0.00 in0.0 mm
06:50 PM 60.0°F15.6°C 53.1°F11.7°C 78% 4.6 mph E7.4 kmh E 7.0 mph11.3 kmh 29.98 in1015.2 mb 0.00 in0.0 mm 0.00 in0.0 mm 0.00 in0.0 mm
06:51 PM 60.0°F15.6°C 53.1°F11.7°C 78% 4.0 mph E6.4 kmh E 7.0 mph11.3 kmh 29.98 in1015.2 mb 0.00 in0.0 mm 0.00 in0.0 mm 0.00 in0.0 mm
06:52 PM 59.9°F15.5°C 53.0°F11.7°C 78% 4.0 mph E6.4 kmh E 5.0 mph8.0 kmh 29.98 in1015.2 mb 0.00 in0.0 mm 0.00 in0.0 mm 0.00 in0.0 mm
06:53 PM 59.9°F15.5°C 53.0°F11.7°C 78% 5.5 mph E8.9 kmh E 9.0 mph14.5 kmh 29.98 in1015.2 mb 0.00 in0.0 mm 0.00 in0.0 mm 0.00 in0.0 mm
06:54 PM 59.8°F15.4°C 52.9°F11.6°C 78% 4.0 mph E6.4 kmh E 9.0 mph14.5 kmh 29.98 in1015.2 mb 0.00 in0.0 mm 0.00 in0.0 mm 0.00 in0.0 mm
06:55 PM 59.8°F15.4°C 52.9°F11.6°C 78% 4.2 mph E6.8 kmh E 7.0 mph11.3 kmh 29.98 in1015.2 mb 0.00 in0.0 mm 0.00 in0.0 mm 0.00 in0.0 mm
06:56 PM 59.7°F15.4°C 52.8°F11.6°C 78% 3.6 mph E5.8 kmh E 6.0 mph9.7 kmh 29.98 in1015.2 mb 0.00 in0.0 mm 0.00 in0.0 mm 0.00 in0.0 mm
06:57 PM 59.6°F15.3°C 52.7°F11.5°C 78% 5.0 mph E8.0 kmh E 7.0 mph11.3 kmh 29.98 in1015.2 mb 0.00 in0.0 mm 0.00 in0.0 mm 0.00 in0.0 mm
06:58 PM 59.6°F15.3°C 53.1°F11.7°C 79% 4.5 mph E7.2 kmh E 7.0 mph11.3 kmh 29.98 in1015.2 mb 0.00 in0.0 mm 0.00 in0.0 mm 0.00 in0.0 mm
06:59 PM 59.5°F15.3°C 53.0°F11.7°C 79% 4.6 mph E7.4 kmh E 8.0 mph12.9 kmh 29.98 in1015.2 mb 0.00 in0.0 mm 0.00 in0.0 mm 0.00 in0.0 mm
07:00 PM 59.5°F15.3°C 53.0°F11.7°C 79% 4.0 mph E6.4 kmh E 6.0 mph9.7 kmh 29.98 in1015.2 mb 0.00 in0.0 mm 0.00 in0.0 mm 0.00 in0.0 mm
07:01 PM 59.4°F15.2°C 52.9°F11.6°C 79% 4.0 mph E6.4 kmh E 6.0 mph9.7 kmh 29.98 in1015.2 mb 0.00 in0.0 mm 0.00 in0.0 mm 0.00 in0.0 mm
07:02 PM 59.4°F15.2°C 52.9°F11.6°C 79% 4.0 mph E6.4 kmh E 6.0 mph9.7 kmh 29.98 in1015.2 mb 0.00 in0.0 mm 0.00 in0.0 mm 0.00 in0.0 mm
07:03 PM 59.2°F15.1°C 52.7°F11.5°C 79% 3.8 mph E6.1 kmh E 5.0 mph8.0 kmh 29.98 in1015.2 mb 0.00 in0.0 mm 0.00 in0.0 mm 0.00 in0.0 mm
07:04 PM 59.2°F15.1°C 52.7°F11.5°C 79% 3.8 mph E6.1 kmh E 6.0 mph9.7 kmh 29.98 in1015.2 mb 0.00 in0.0 mm 0.00 in0.0 mm 0.00 in0.0 mm
07:05 PM 59.1°F15.1°C 52.6°F11.4°C 79% 4.2 mph E6.8 kmh E 7.0 mph11.3 kmh 29.98 in1015.2 mb 0.00 in0.0 mm 0.00 in0.0 mm 0.00 in0.0 mm
07:06 PM 59.1°F15.1°C 52.6°F11.4°C 79% 3.9 mph E6.3 kmh E 7.0 mph11.3 kmh 29.98 in1015.2 mb 0.00 in0.0 mm 0.00 in0.0 mm 0.00 in0.0 mm
07:07 PM 59.0°F15.0°C 52.8°F11.6°C 80% 3.9 mph E6.3 kmh E 7.0 mph11.3 kmh 29.98 in1015.2 mb 0.00 in0.0 mm 0.00 in0.0 mm 0.00 in0.0 mm
07:08 PM 58.9°F14.9°C 52.7°F11.5°C 80% 4.5 mph E7.2 kmh E 7.0 mph11.3 kmh 29.98 in1015.2 mb 0.00 in0.0 mm 0.00 in0.0 mm 0.00 in0.0 mm
07:09 PM 58.9°F14.9°C 52.7°F11.5°C 80% 5.7 mph E9.2 kmh E 8.0 mph12.9 kmh 29.98 in1015.2 mb 0.00 in0.0 mm 0.00 in0.0 mm 0.00 in0.0 mm
07:10 PM 58.8°F14.9°C 52.6°F11.4°C 80% 3.9 mph E6.3 kmh E 8.0 mph12.9 kmh 29.98 in1015.2 mb 0.00 in0.0 mm 0.00 in0.0 mm 0.00 in0.0 mm
07:11 PM 58.7°F14.8°C 52.5°F11.4°C 80% 4.0 mph E6.4 kmh E 7.0 mph11.3 kmh 29.98 in1015.2 mb 0.00 in0.0 mm 0.00 in0.0 mm 0.00 in0.0 mm
07:12 PM 58.7°F14.8°C 52.5°F11.4°C 80% 4.8 mph E7.7 kmh E 8.0 mph12.9 kmh 29.98 in1015.2 mb 0.00 in0.0 mm 0.00 in0.0 mm 0.00 in0.0 mm
07:13 PM 58.6°F14.8°C 52.4°F11.3°C 80% 5.6 mph E9.0 kmh E 8.0 mph12.9 kmh 29.98 in1015.2 mb 0.00 in0.0 mm 0.00 in0.0 mm 0.00 in0.0 mm
07:14 PM 58.6°F14.8°C 52.4°F11.3°C 80% 5.0 mph E8.0 kmh E 7.0 mph11.3 kmh 29.98 in1015.2 mb 0.00 in0.0 mm 0.00 in0.0 mm 0.00 in0.0 mm
07:15 PM 58.6°F14.8°C 52.4°F11.3°C 80% 5.0 mph E8.0 kmh E 8.0 mph12.9 kmh 29.98 in1015.2 mb 0.00 in0.0 mm 0.00 in0.0 mm 0.00 in0.0 mm
07:16 PM 58.5°F14.7°C 52.4°F11.3°C 80% 5.0 mph E8.0 kmh E 8.0 mph12.9 kmh 29.98 in1015.2 mb 0.00 in0.0 mm 0.00 in0.0 mm 0.00 in0.0 mm
07:17 PM 58.5°F14.7°C 52.4°F11.3°C 80% 6.3 mph E10.1 kmh E 7.0 mph11.3 kmh 29.98 in1015.2 mb 0.00 in0.0 mm 0.00 in0.0 mm 0.00 in0.0 mm
07:18 PM 58.4°F14.7°C 52.3°F11.3°C 80% 4.7 mph E7.6 kmh E 8.0 mph12.9 kmh 29.98 in1015.2 mb 0.00 in0.0 mm 0.00 in0.0 mm 0.00 in0.0 mm
07:19 PM 58.4°F14.7°C 52.3°F11.3°C 80% 4.9 mph E7.9 kmh E 8.0 mph12.9 kmh 29.98 in1015.2 mb 0.00 in0.0 mm 0.00 in0.0 mm 0.00 in0.0 mm
07:20 PM 58.4°F14.7°C 52.3°F11.3°C 80% 5.5 mph E8.9 kmh E 9.0 mph14.5 kmh 29.98 in1015.2 mb 0.00 in0.0 mm 0.00 in0.0 mm 0.00 in0.0 mm
07:21 PM 58.3°F14.6°C 52.2°F11.2°C 80% 5.9 mph E9.5 kmh E 9.0 mph14.5 kmh 29.98 in1015.2 mb 0.00 in0.0 mm 0.00 in0.0 mm 0.00 in0.0 mm
07:22 PM 58.3°F14.6°C 52.2°F11.2°C 80% 6.0 mph E9.7 kmh E 8.0 mph12.9 kmh 29.98 in1015.2 mb 0.00 in0.0 mm 0.00 in0.0 mm 0.00 in0.0 mm
07:23 PM 58.3°F14.6°C 52.2°F11.2°C 80% 6.9 mph E11.1 kmh E 9.0 mph14.5 kmh 29.98 in1015.2 mb 0.00 in0.0 mm 0.00 in0.0 mm 0.00 in0.0 mm
07:24 PM 58.2°F14.6°C 52.1°F11.2°C 80% 5.5 mph E8.9 kmh E 9.0 mph14.5 kmh 29.98 in1015.2 mb 0.00 in0.0 mm 0.00 in0.0 mm 0.00 in0.0 mm
07:25 PM 58.2°F14.6°C 52.1°F11.2°C 80% 6.0 mph E9.7 kmh E 8.0 mph12.9 kmh 29.98 in1015.2 mb 0.00 in0.0 mm 0.00 in0.0 mm 0.00 in0.0 mm
07:26 PM 58.1°F14.5°C 52.0°F11.1°C 80% 7.0 mph E11.3 kmh E 9.0 mph14.5 kmh 29.98 in1015.2 mb 0.00 in0.0 mm 0.00 in0.0 mm 0.00 in0.0 mm
07:27 PM 58.1°F14.5°C 52.0°F11.1°C 80% 6.0 mph E9.7 kmh E 8.0 mph12.9 kmh 29.98 in1015.2 mb 0.00 in0.0 mm 0.00 in0.0 mm 0.00 in0.0 mm
07:28 PM 58.0°F14.4°C 51.9°F11.1°C 80% 4.0 mph E6.4 kmh E 6.0 mph9.7 kmh 29.98 in1015.2 mb 0.00 in0.0 mm 0.00 in0.0 mm 0.00 in0.0 mm
07:29 PM 58.0°F14.4°C 51.9°F11.1°C 80% 5.0 mph E8.0 kmh E 7.0 mph11.3 kmh 29.98 in1015.2 mb 0.00 in0.0 mm 0.00 in0.0 mm 0.00 in0.0 mm
07:30 PM 57.9°F14.4°C 51.8°F11.0°C 80% 6.1 mph E9.8 kmh E 9.0 mph14.5 kmh 29.98 in1015.2 mb 0.00 in0.0 mm 0.00 in0.0 mm 0.00 in0.0 mm
07:31 PM 57.9°F14.4°C 51.8°F11.0°C 80% 7.5 mph E12.1 kmh E 9.0 mph14.5 kmh 29.98 in1015.2 mb 0.00 in0.0 mm 0.00 in0.0 mm 0.00 in0.0 mm
07:32 PM 57.9°F14.4°C 51.8°F11.0°C 80% 5.8 mph E9.3 kmh E 9.0 mph14.5 kmh 29.98 in1015.2 mb 0.00 in0.0 mm 0.00 in0.0 mm 0.00 in0.0 mm
07:33 PM 57.8°F14.3°C 51.7°F10.9°C 80% 6.1 mph E9.8 kmh E 8.0 mph12.9 kmh 29.98 in1015.2 mb 0.00 in0.0 mm 0.00 in0.0 mm 0.00 in0.0 mm
07:34 PM 57.8°F14.3°C 51.7°F10.9°C 80% 5.1 mph E8.2 kmh E 8.0 mph12.9 kmh 29.98 in1015.2 mb 0.00 in0.0 mm 0.00 in0.0 mm 0.00 in0.0 mm
07:35 PM 57.7°F14.3°C 51.6°F10.9°C 80% 5.6 mph E9.0 kmh E 8.0 mph12.9 kmh 29.98 in1015.2 mb 0.00 in0.0 mm 0.00 in0.0 mm 0.00 in0.0 mm
07:36 PM 57.7°F14.3°C 51.6°F10.9°C 80% 6.0 mph E9.7 kmh E 7.0 mph11.3 kmh 29.98 in1015.2 mb 0.00 in0.0 mm 0.00 in0.0 mm 0.00 in0.0 mm
07:37 PM 57.6°F14.2°C 51.5°F10.8°C 80% 6.0 mph E9.7 kmh E 7.0 mph11.3 kmh 29.98 in1015.2 mb 0.00 in0.0 mm 0.00 in0.0 mm 0.00 in0.0 mm
07:38 PM 57.6°F14.2°C 51.5°F10.8°C 80% 5.9 mph E9.5 kmh E 7.0 mph11.3 kmh 29.98 in1015.2 mb 0.00 in0.0 mm 0.00 in0.0 mm 0.00 in0.0 mm
07:39 PM 57.5°F14.2°C 51.4°F10.8°C 80% 6.6 mph E10.6 kmh E 9.0 mph14.5 kmh 29.98 in1015.2 mb 0.00 in0.0 mm 0.00 in0.0 mm 0.00 in0.0 mm
07:40 PM 57.5°F14.2°C 51.4°F10.8°C 80% 6.1 mph E9.8 kmh E 9.0 mph14.5 kmh 29.98 in1015.2 mb 0.00 in0.0 mm 0.00 in0.0 mm 0.00 in0.0 mm
07:41 PM 57.4°F14.1°C 51.3°F10.7°C 80% 6.1 mph E9.8 kmh E 9.0 mph14.5 kmh 29.98 in1015.2 mb 0.00 in0.0 mm 0.00 in0.0 mm 0.00 in0.0 mm
07:42 PM 57.4°F14.1°C 51.3°F10.7°C 80% 6.0 mph E9.7 kmh E 8.0 mph12.9 kmh 29.98 in1015.2 mb 0.00 in0.0 mm 0.00 in0.0 mm 0.00 in0.0 mm
07:43 PM 57.4°F14.1°C 51.3°F10.7°C 80% 6.0 mph E9.7 kmh E 9.0 mph14.5 kmh 29.98 in1015.2 mb 0.00 in0.0 mm 0.00 in0.0 mm 0.00 in0.0 mm
07:44 PM 57.3°F14.1°C 50.8°F10.4°C 79% 6.5 mph E10.5 kmh E 7.0 mph11.3 kmh 29.98 in1015.2 mb 0.00 in0.0 mm 0.00 in0.0 mm 0.00 in0.0 mm
07:45 PM 57.3°F14.1°C 50.8°F10.4°C 79% 5.7 mph E9.2 kmh E 7.0 mph11.3 kmh 29.99 in1015.6 mb 0.00 in0.0 mm 0.00 in0.0 mm 0.00 in0.0 mm
07:46 PM 57.3°F14.1°C 50.8°F10.4°C 79% 5.9 mph E9.5 kmh E 7.0 mph11.3 kmh 29.98 in1015.2 mb 0.00 in0.0 mm 0.00 in0.0 mm 0.00 in0.0 mm
07:47 PM 57.3°F14.1°C 50.8°F10.4°C 79% 5.1 mph E8.2 kmh E 8.0 mph12.9 kmh 29.99 in1015.6 mb 0.00 in0.0 mm 0.00 in0.0 mm 0.00 in0.0 mm
07:48 PM 57.3°F14.1°C 50.8°F10.4°C 79% 4.4 mph E7.1 kmh E 8.0 mph12.9 kmh 29.99 in1015.6 mb 0.00 in0.0 mm 0.00 in0.0 mm 0.00 in0.0 mm
07:49 PM 57.2°F14.0°C 50.7°F10.4°C 79% 5.4 mph E8.7 kmh E 7.0 mph11.3 kmh 29.99 in1015.6 mb 0.00 in0.0 mm 0.00 in0.0 mm 0.00 in0.0 mm
07:50 PM 57.1°F13.9°C 50.6°F10.3°C 79% 4.7 mph E7.6 kmh E 7.0 mph11.3 kmh 29.99 in1015.6 mb 0.00 in0.0 mm 0.00 in0.0 mm 0.00 in0.0 mm
07:51 PM 57.2°F14.0°C 50.7°F10.4°C 79% 5.0 mph E8.0 kmh E 7.0 mph11.3 kmh 29.99 in1015.6 mb 0.00 in0.0 mm 0.00 in0.0 mm 0.00 in0.0 mm
07:52 PM 57.1°F13.9°C 50.6°F10.3°C 79% 5.0 mph E8.0 kmh E 7.0 mph11.3 kmh 29.99 in1015.6 mb 0.00 in0.0 mm 0.00 in0.0 mm 0.00 in0.0 mm
07:53 PM 57.0°F13.9°C 50.6°F10.3°C 79% 5.6 mph E9.0 kmh E 6.0 mph9.7 kmh 29.99 in1015.6 mb 0.00 in0.0 mm 0.00 in0.0 mm 0.00 in0.0 mm
07:54 PM 57.0°F13.9°C 50.6°F10.3°C 79% 4.9 mph E7.9 kmh E 6.0 mph9.7 kmh 29.99 in1015.6 mb 0.00 in0.0 mm 0.00 in0.0 mm 0.00 in0.0 mm
07:55 PM 56.9°F13.8°C 50.5°F10.3°C 79% 5.7 mph E9.2 kmh E 7.0 mph11.3 kmh 29.98 in1015.2 mb 0.00 in0.0 mm 0.00 in0.0 mm 0.00 in0.0 mm
07:56 PM 56.9°F13.8°C 50.5°F10.3°C 79% 4.9 mph E7.9 kmh E 7.0 mph11.3 kmh 29.99 in1015.6 mb 0.00 in0.0 mm 0.00 in0.0 mm 0.00 in0.0 mm
07:57 PM 56.9°F13.8°C 50.5°F10.3°C 79% 4.4 mph E7.1 kmh E 7.0 mph11.3 kmh 29.99 in1015.6 mb 0.00 in0.0 mm 0.00 in0.0 mm 0.00 in0.0 mm
07:58 PM 56.8°F13.8°C 50.4°F10.2°C 79% 4.2 mph E6.8 kmh E 7.0 mph11.3 kmh 29.99 in1015.6 mb 0.00 in0.0 mm 0.00 in0.0 mm 0.00 in0.0 mm
07:59 PM 56.8°F13.8°C 50.0°F10.0°C 78% 4.9 mph E7.9 kmh E 7.0 mph11.3 kmh 29.99 in1015.6 mb 0.00 in0.0 mm 0.00 in0.0 mm 0.00 in0.0 mm
08:00 PM 56.8°F13.8°C 50.4°F10.2°C 79% 5.9 mph E9.5 kmh E 7.0 mph11.3 kmh 29.99 in1015.6 mb 0.00 in0.0 mm 0.00 in0.0 mm 0.00 in0.0 mm
08:01 PM 56.7°F13.7°C 49.9°F9.9°C 78% 4.9 mph E7.9 kmh E 7.0 mph11.3 kmh 29.99 in1015.6 mb 0.00 in0.0 mm 0.00 in0.0 mm 0.00 in0.0 mm
08:02 PM 56.7°F13.7°C 49.9°F9.9°C 78% 5.5 mph E8.9 kmh E 7.0 mph11.3 kmh 29.99 in1015.6 mb 0.00 in0.0 mm 0.00 in0.0 mm 0.00 in0.0 mm
08:03 PM 56.7°F13.7°C 49.9°F9.9°C 78% 5.6 mph E9.0 kmh E 8.0 mph12.9 kmh 29.99 in1015.6 mb 0.00 in0.0 mm 0.00 in0.0 mm 0.00 in0.0 mm
08:04 PM 56.6°F13.7°C 49.8°F9.9°C 78% 5.0 mph E8.0 kmh E 7.0 mph11.3 kmh 29.99 in1015.6 mb 0.00 in0.0 mm 0.00 in0.0 mm 0.00 in0.0 mm
08:05 PM 56.6°F13.7°C 49.8°F9.9°C 78% 6.0 mph E9.7 kmh E 7.0 mph11.3 kmh 29.99 in1015.6 mb 0.00 in0.0 mm 0.00 in0.0 mm 0.00 in0.0 mm
08:06 PM 56.6°F13.7°C 49.8°F9.9°C 78% 5.0 mph E8.0 kmh E 7.0 mph11.3 kmh 29.99 in1015.6 mb 0.00 in0.0 mm 0.00 in0.0 mm 0.00 in0.0 mm
08:07 PM 56.5°F13.6°C 49.7°F9.8°C 78% 5.9 mph E9.5 kmh E 8.0 mph12.9 kmh 29.99 in1015.6 mb 0.00 in0.0 mm 0.00 in0.0 mm 0.00 in0.0 mm
08:08 PM 56.5°F13.6°C 49.7°F9.8°C 78% 4.4 mph E7.1 kmh E 8.0 mph12.9 kmh 29.99 in1015.6 mb 0.00 in0.0 mm 0.00 in0.0 mm 0.00 in0.0 mm
08:09 PM 56.5°F13.6°C 49.7°F9.8°C 78% 4.3 mph E6.9 kmh E 7.0 mph11.3 kmh 29.99 in1015.6 mb 0.00 in0.0 mm 0.00 in0.0 mm 0.00 in0.0 mm
08:10 PM 56.5°F13.6°C 49.7°F9.8°C 78% 4.1 mph E6.6 kmh E 7.0 mph11.3 kmh 29.99 in1015.6 mb 0.00 in0.0 mm 0.00 in0.0 mm 0.00 in0.0 mm
08:11 PM 56.4°F13.6°C 49.6°F9.8°C 78% 3.8 mph E6.1 kmh E 7.0 mph11.3 kmh 29.99 in1015.6 mb 0.00 in0.0 mm 0.00 in0.0 mm 0.00 in0.0 mm
08:12 PM 56.4°F13.6°C 49.6°F9.8°C 78% 5.1 mph E8.2 kmh E 6.0 mph9.7 kmh 29.99 in1015.6 mb 0.00 in0.0 mm 0.00 in0.0 mm 0.00 in0.0 mm
08:13 PM 56.4°F13.6°C 50.0°F10.0°C 79% 3.4 mph E5.5 kmh E 6.0 mph9.7 kmh 29.99 in1015.6 mb 0.00 in0.0 mm 0.00 in0.0 mm 0.00 in0.0 mm
08:14 PM 56.4°F13.6°C 50.0°F10.0°C 79% 4.3 mph E6.9 kmh E 6.0 mph9.7 kmh 29.99 in1015.6 mb 0.00 in0.0 mm 0.00 in0.0 mm 0.00 in0.0 mm
08:15 PM 56.4°F13.6°C 50.0°F10.0°C 79% 3.2 mph E5.1 kmh E 6.0 mph9.7 kmh 29.99 in1015.6 mb 0.00 in0.0 mm 0.00 in0.0 mm 0.00 in0.0 mm
08:16 PM 56.3°F13.5°C 49.9°F9.9°C 79% 3.3 mph ESE5.3 kmh ESE 6.0 mph9.7 kmh 29.99 in1015.6 mb 0.00 in0.0 mm 0.00 in0.0 mm 0.00 in0.0 mm
08:17 PM 56.2°F13.4°C 49.8°F9.9°C 79% 3.4 mph E5.5 kmh E 6.0 mph9.7 kmh 29.99 in1015.6 mb 0.00 in0.0 mm 0.00 in0.0 mm 0.00 in0.0 mm
08:18 PM 56.2°F13.4°C 49.8°F9.9°C 79% 2.8 mph E4.5 kmh E 6.0 mph9.7 kmh 29.99 in1015.6 mb 0.00 in0.0 mm 0.00 in0.0 mm 0.00 in0.0 mm
08:19 PM 56.2°F13.4°C 49.8°F9.9°C 79% 2.8 mph E4.5 kmh E 4.0 mph6.4 kmh 29.99 in1015.6 mb 0.00 in0.0 mm 0.00 in0.0 mm 0.00 in0.0 mm
08:20 PM 56.1°F13.4°C 49.7°F9.8°C 79% 2.9 mph E4.7 kmh E 4.0 mph6.4 kmh 29.99 in1015.6 mb 0.00 in0.0 mm 0.00 in0.0 mm 0.00 in0.0 mm
08:21 PM 56.1°F13.4°C 49.7°F9.8°C 79% 3.1 mph E5.0 kmh E 4.0 mph6.4 kmh 29.99 in1015.6 mb 0.00 in0.0 mm 0.00 in0.0 mm 0.00 in0.0 mm
08:22 PM 56.0°F13.3°C 49.6°F9.8°C 79% 3.6 mph ESE5.8 kmh ESE 6.0 mph9.7 kmh 29.99 in1015.6 mb 0.00 in0.0 mm 0.00 in0.0 mm 0.00 in0.0 mm
08:23 PM 56.0°F13.3°C 49.6°F9.8°C 79% 3.0 mph ESE4.8 kmh ESE 6.0 mph9.7 kmh 29.99 in1015.6 mb 0.00 in0.0 mm 0.00 in0.0 mm 0.00 in0.0 mm
08:24 PM 56.0°F13.3°C 49.6°F9.8°C 79% 4.0 mph E6.4 kmh E 4.0 mph6.4 kmh 29.99 in1015.6 mb 0.00 in0.0 mm 0.00 in0.0 mm 0.00 in0.0 mm
08:25 PM 56.0°F13.3°C 49.6°F9.8°C 79% 3.8 mph E6.1 kmh E 4.0 mph6.4 kmh 29.99 in1015.6 mb 0.00 in0.0 mm 0.00 in0.0 mm 0.00 in0.0 mm
08:26 PM 56.0°F13.3°C 49.6°F9.8°C 79% 5.0 mph E8.0 kmh E 6.0 mph9.7 kmh 29.99 in1015.6 mb 0.00 in0.0 mm 0.00 in0.0 mm 0.00 in0.0 mm
08:27 PM 56.0°F13.3°C 49.6°F9.8°C 79% 3.8 mph E6.1 kmh E 6.0 mph9.7 kmh 29.99 in1015.6 mb 0.00 in0.0 mm 0.00 in0.0 mm 0.00 in0.0 mm
08:28 PM 55.9°F13.3°C 49.5°F9.7°C 79% 4.7 mph E7.6 kmh E 8.0 mph12.9 kmh 29.99 in1015.6 mb 0.00 in0.0 mm 0.00 in0.0 mm 0.00 in0.0 mm
08:29 PM 55.9°F13.3°C 49.5°F9.7°C 79% 3.5 mph E5.6 kmh E 8.0 mph12.9 kmh 29.99 in1015.6 mb 0.00 in0.0 mm 0.00 in0.0 mm 0.00 in0.0 mm
08:30 PM 55.9°F13.3°C 49.8°F9.9°C 80% 3.5 mph E5.6 kmh E 6.0 mph9.7 kmh 29.99 in1015.6 mb 0.00 in0.0 mm 0.00 in0.0 mm 0.00 in0.0 mm
08:31 PM 55.9°F13.3°C 49.8°F9.9°C 80% 3.6 mph E5.8 kmh E 6.0 mph9.7 kmh 29.99 in1015.6 mb 0.00 in0.0 mm 0.00 in0.0 mm 0.00 in0.0 mm
08:32 PM 55.9°F13.3°C 49.8°F9.9°C 80% 3.1 mph E5.0 kmh E 4.0 mph6.4 kmh 29.99 in1015.6 mb 0.00 in0.0 mm 0.00 in0.0 mm 0.00 in0.0 mm
08:33 PM 55.8°F13.2°C 49.7°F9.8°C 80% 3.5 mph ESE5.6 kmh ESE 4.0 mph6.4 kmh 29.99 in1015.6 mb 0.00 in0.0 mm 0.00 in0.0 mm 0.00 in0.0 mm
08:34 PM 55.8°F13.2°C 49.7°F9.8°C 80% 3.7 mph E6.0 kmh E 6.0 mph9.7 kmh 29.99 in1015.6 mb 0.00 in0.0 mm 0.00 in0.0 mm 0.00 in0.0 mm
08:35 PM 55.7°F13.2°C 49.6°F9.8°C 80% 4.8 mph E7.7 kmh E 6.0 mph9.7 kmh 29.99 in1015.6 mb 0.00 in0.0 mm 0.00 in0.0 mm 0.00 in0.0 mm
08:36 PM 55.7°F13.2°C 49.6°F9.8°C 80% 4.2 mph E6.8 kmh E 6.0 mph9.7 kmh 29.99 in1015.6 mb 0.00 in0.0 mm 0.00 in0.0 mm 0.00 in0.0 mm
08:37 PM 55.7°F13.2°C 49.6°F9.8°C 80% 4.8 mph E7.7 kmh E 6.0 mph9.7 kmh 29.99 in1015.6 mb 0.00 in0.0 mm 0.00 in0.0 mm 0.00 in0.0 mm
08:38 PM 55.7°F13.2°C 49.6°F9.8°C 80% 4.2 mph E6.8 kmh E 6.0 mph9.7 kmh 29.99 in1015.6 mb 0.00 in0.0 mm 0.00 in0.0 mm 0.00 in0.0 mm
08:39 PM 55.6°F13.1°C 49.5°F9.7°C 80% 4.5 mph E7.2 kmh E 6.0 mph9.7 kmh 29.99 in1015.6 mb 0.00 in0.0 mm 0.00 in0.0 mm 0.00 in0.0 mm
08:40 PM 55.5°F13.1°C 49.4°F9.7°C 80% 4.3 mph E6.9 kmh E 6.0 mph9.7 kmh 29.99 in1015.6 mb 0.00 in0.0 mm 0.00 in0.0 mm 0.00 in0.0 mm
08:41 PM 55.5°F13.1°C 49.4°F9.7°C 80% 4.6 mph E7.4 kmh E 6.0 mph9.7 kmh 29.99 in1015.6 mb 0.00 in0.0 mm 0.00 in0.0 mm 0.00 in0.0 mm
08:42 PM 55.5°F13.1°C 49.4°F9.7°C 80% 3.4 mph E5.5 kmh E 6.0 mph9.7 kmh 29.99 in1015.6 mb 0.00 in0.0 mm 0.00 in0.0 mm 0.00 in0.0 mm
08:43 PM 55.4°F13.0°C 49.7°F9.8°C 81% 3.2 mph E5.1 kmh E 6.0 mph9.7 kmh 29.99 in1015.6 mb 0.00 in0.0 mm 0.00 in0.0 mm 0.00 in0.0 mm
08:44 PM 55.4°F13.0°C 49.7°F9.8°C 81% 3.3 mph E5.3 kmh E 6.0 mph9.7 kmh 29.99 in1015.6 mb 0.00 in0.0 mm 0.00 in0.0 mm 0.00 in0.0 mm
08:45 PM 55.3°F12.9°C 49.6°F9.8°C 81% 3.4 mph E5.5 kmh E 4.0 mph6.4 kmh 29.99 in1015.6 mb 0.00 in0.0 mm 0.00 in0.0 mm 0.00 in0.0 mm
08:46 PM 55.3°F12.9°C 49.6°F9.8°C 81% 3.7 mph E6.0 kmh E 6.0 mph9.7 kmh 29.99 in1015.6 mb 0.00 in0.0 mm 0.00 in0.0 mm 0.00 in0.0 mm
08:47 PM 55.2°F12.9°C 49.5°F9.7°C 81% 2.9 mph E4.7 kmh E 6.0 mph9.7 kmh 29.99 in1015.6 mb 0.00 in0.0 mm 0.00 in0.0 mm 0.00 in0.0 mm
08:48 PM 55.2°F12.9°C 49.5°F9.7°C 81% 3.6 mph E5.8 kmh E 4.0 mph6.4 kmh 29.99 in1015.6 mb 0.00 in0.0 mm 0.00 in0.0 mm 0.00 in0.0 mm
08:49 PM 55.2°F12.9°C 49.5°F9.7°C 81% 3.9 mph E6.3 kmh E 6.0 mph9.7 kmh 29.99 in1015.6 mb 0.00 in0.0 mm 0.00 in0.0 mm 0.00 in0.0 mm
08:50 PM 55.1°F12.8°C 49.4°F9.7°C 81% 3.7 mph E6.0 kmh E 6.0 mph9.7 kmh 29.99 in1015.6 mb 0.00 in0.0 mm 0.00 in0.0 mm 0.00 in0.0 mm
08:51 PM 55.0°F12.8°C 49.3°F9.6°C 81% 4.3 mph E6.9 kmh E 6.0 mph9.7 kmh 29.99 in1015.6 mb 0.00 in0.0 mm 0.00 in0.0 mm 0.00 in0.0 mm
08:52 PM 55.0°F12.8°C 49.3°F9.6°C 81% 4.0 mph E6.4 kmh E 6.0 mph9.7 kmh 29.99 in1015.6 mb 0.00 in0.0 mm 0.00 in0.0 mm 0.00 in0.0 mm
08:53 PM 55.0°F12.8°C 49.3°F9.6°C 81% 3.8 mph E6.1 kmh E 7.0 mph11.3 kmh 29.99 in1015.6 mb 0.00 in0.0 mm 0.00 in0.0 mm 0.00 in0.0 mm
08:54 PM 55.0°F12.8°C 49.3°F9.6°C 81% 3.7 mph E6.0 kmh E 7.0 mph11.3 kmh 29.99 in1015.6 mb 0.00 in0.0 mm 0.00 in0.0 mm 0.00 in0.0 mm
08:55 PM 54.9°F12.7°C 49.2°F9.6°C 81% 3.5 mph E5.6 kmh E 6.0 mph9.7 kmh 29.99 in1015.6 mb 0.00 in0.0 mm 0.00 in0.0 mm 0.00 in0.0 mm
08:56 PM 54.9°F12.7°C 49.2°F9.6°C 81% 3.6 mph E5.8 kmh E 6.0 mph9.7 kmh 29.99 in1015.6 mb 0.00 in0.0 mm 0.00 in0.0 mm 0.00 in0.0 mm
08:57 PM 54.9°F12.7°C 49.2°F9.6°C 81% 3.6 mph E5.8 kmh E 6.0 mph9.7 kmh 29.99 in1015.6 mb 0.00 in0.0 mm 0.00 in0.0 mm 0.00 in0.0 mm
08:58 PM 54.9°F12.7°C 49.2°F9.6°C 81% 4.0 mph E6.4 kmh E 6.0 mph9.7 kmh 29.99 in1015.6 mb 0.00 in0.0 mm 0.00 in0.0 mm 0.00 in0.0 mm
08:59 PM 54.8°F12.7°C 49.1°F9.5°C 81% 4.3 mph E6.9 kmh E 6.0 mph9.7 kmh 29.99 in1015.6 mb 0.00 in0.0 mm 0.00 in0.0 mm 0.00 in0.0 mm
09:00 PM 54.8°F12.7°C 49.1°F9.5°C 81% 3.9 mph E6.3 kmh E 6.0 mph9.7 kmh 29.99 in1015.6 mb 0.00 in0.0 mm 0.00 in0.0 mm 0.00 in0.0 mm
09:01 PM 54.8°F12.7°C 49.4°F9.7°C 82% 4.2 mph E6.8 kmh E 6.0 mph9.7 kmh 29.99 in1015.6 mb 0.00 in0.0 mm 0.00 in0.0 mm 0.00 in0.0 mm
09:02 PM 54.8°F12.7°C 49.4°F9.7°C 82% 4.3 mph E6.9 kmh E 6.0 mph9.7 kmh 29.99 in1015.6 mb 0.00 in0.0 mm 0.00 in0.0 mm 0.00 in0.0 mm
09:03 PM 54.8°F12.7°C 49.4°F9.7°C 82% 4.6 mph E7.4 kmh E 7.0 mph11.3 kmh 29.99 in1015.6 mb 0.00 in0.0 mm 0.00 in0.0 mm 0.00 in0.0 mm
09:04 PM 54.8°F12.7°C 49.4°F9.7°C 82% 4.3 mph E6.9 kmh E 7.0 mph11.3 kmh 29.99 in1015.6 mb 0.00 in0.0 mm 0.00 in0.0 mm 0.00 in0.0 mm
09:05 PM 54.7°F12.6°C 49.3°F9.6°C 82% 4.7 mph E7.6 kmh E 7.0 mph11.3 kmh 29.99 in1015.6 mb 0.00 in0.0 mm 0.00 in0.0 mm 0.00 in0.0 mm
09:06 PM 54.8°F12.7°C 49.4°F9.7°C 82% 4.3 mph E6.9 kmh E 7.0 mph11.3 kmh 29.99 in1015.6 mb 0.00 in0.0 mm 0.00 in0.0 mm 0.00 in0.0 mm
09:07 PM 54.7°F12.6°C 49.3°F9.6°C 82% 4.2 mph E6.8 kmh E 6.0 mph9.7 kmh 29.99 in1015.6 mb 0.00 in0.0 mm 0.00 in0.0 mm 0.00 in0.0 mm
09:08 PM 54.7°F12.6°C 49.3°F9.6°C 82% 4.3 mph E6.9 kmh E 6.0 mph9.7 kmh 29.99 in1015.6 mb 0.00 in0.0 mm 0.00 in0.0 mm 0.00 in0.0 mm
09:09 PM 54.6°F12.6°C 49.2°F9.6°C 82% 4.2 mph E6.8 kmh E 7.0 mph11.3 kmh 29.99 in1015.6 mb 0.00 in0.0 mm 0.00 in0.0 mm 0.00 in0.0 mm
09:10 PM 54.7°F12.6°C 49.3°F9.6°C 82% 3.9 mph E6.3 kmh E 7.0 mph11.3 kmh 29.99 in1015.6 mb 0.00 in0.0 mm 0.00 in0.0 mm 0.00 in0.0 mm
09:11 PM 54.7°F12.6°C 49.3°F9.6°C 82% 3.3 mph E5.3 kmh E 6.0 mph9.7 kmh 29.99 in1015.6 mb 0.00 in0.0 mm 0.00 in0.0 mm 0.00 in0.0 mm
09:12 PM 54.6°F12.6°C 49.2°F9.6°C 82% 3.7 mph E6.0 kmh E 6.0 mph9.7 kmh 29.99 in1015.6 mb 0.00 in0.0 mm 0.00 in0.0 mm 0.00 in0.0 mm
09:13 PM 54.6°F12.6°C 49.2°F9.6°C 82% 3.9 mph E6.3 kmh E 5.0 mph8.0 kmh 29.99 in1015.6 mb 0.00 in0.0 mm 0.00 in0.0 mm 0.00 in0.0 mm
09:14 PM 54.6°F12.6°C 49.2°F9.6°C 82% 3.8 mph E6.1 kmh E 6.0 mph9.7 kmh 29.99 in1015.6 mb 0.00 in0.0 mm 0.00 in0.0 mm 0.00 in0.0 mm
09:15 PM 54.6°F12.6°C 49.2°F9.6°C 82% 3.7 mph E6.0 kmh E 6.0 mph9.7 kmh 29.99 in1015.6 mb 0.00 in0.0 mm 0.00 in0.0 mm 0.00 in0.0 mm
09:16 PM 54.6°F12.6°C 49.2°F9.6°C 82% 4.4 mph E7.1 kmh E 6.0 mph9.7 kmh 29.99 in1015.6 mb 0.00 in0.0 mm 0.00 in0.0 mm 0.00 in0.0 mm
09:17 PM 54.6°F12.6°C 49.2°F9.6°C 82% 4.5 mph E7.2 kmh E 6.0 mph9.7 kmh 29.99 in1015.6 mb 0.00 in0.0 mm 0.00 in0.0 mm 0.00 in0.0 mm
09:18 PM 54.6°F12.6°C 49.2°F9.6°C 82% 4.5 mph E7.2 kmh E 6.0 mph9.7 kmh 29.99 in1015.6 mb 0.00 in0.0 mm 0.00 in0.0 mm 0.00 in0.0 mm
09:19 PM 54.5°F12.5°C 49.1°F9.5°C 82% 4.9 mph E7.9 kmh E 7.0 mph11.3 kmh 29.99 in1015.6 mb 0.00 in0.0 mm 0.00 in0.0 mm 0.00 in0.0 mm
09:20 PM 54.5°F12.5°C 49.1°F9.5°C 82% 5.1 mph E8.2 kmh E 7.0 mph11.3 kmh 29.99 in1015.6 mb 0.00 in0.0 mm 0.00 in0.0 mm 0.00 in0.0 mm
09:21 PM 54.5°F12.5°C 49.1°F9.5°C 82% 4.7 mph E7.6 kmh E 7.0 mph11.3 kmh 29.99 in1015.6 mb 0.00 in0.0 mm 0.00 in0.0 mm 0.00 in0.0 mm
09:22 PM 54.6°F12.6°C 49.2°F9.6°C 82% 4.7 mph E7.6 kmh E 7.0 mph11.3 kmh 29.99 in1015.6 mb 0.00 in0.0 mm 0.00 in0.0 mm 0.00 in0.0 mm
09:23 PM 54.5°F12.5°C 49.1°F9.5°C 82% 4.6 mph E7.4 kmh E 8.0 mph12.9 kmh 29.99 in1015.6 mb 0.00 in0.0 mm 0.00 in0.0 mm 0.00 in0.0 mm
09:24 PM 54.5°F12.5°C 49.1°F9.5°C 82% 4.6 mph E7.4 kmh E 8.0 mph12.9 kmh 29.99 in1015.6 mb 0.00 in0.0 mm 0.00 in0.0 mm 0.00 in0.0 mm
09:25 PM 54.5°F12.5°C 49.1°F9.5°C 82% 4.6 mph E7.4 kmh E 7.0 mph11.3 kmh 29.99 in1015.6 mb 0.00 in0.0 mm 0.00 in0.0 mm 0.00 in0.0 mm
09:26 PM 54.5°F12.5°C 48.8°F9.3°C 81% 4.1 mph E6.6 kmh E 7.0 mph11.3 kmh 29.99 in1015.6 mb 0.00 in0.0 mm 0.00 in0.0 mm 0.00 in0.0 mm
09:27 PM 54.5°F12.5°C 49.1°F9.5°C 82% 4.7 mph E7.6 kmh E 7.0 mph11.3 kmh 29.99 in1015.6 mb 0.00 in0.0 mm 0.00 in0.0 mm 0.00 in0.0 mm
09:28 PM 54.4°F12.4°C 49.0°F9.4°C 82% 4.2 mph E6.8 kmh E 7.0 mph11.3 kmh 29.99 in1015.6 mb 0.00 in0.0 mm 0.00 in0.0 mm 0.00 in0.0 mm
09:29 PM 54.4°F12.4°C 49.0°F9.4°C 82% 5.2 mph E8.4 kmh E 7.0 mph11.3 kmh 29.99 in1015.6 mb 0.00 in0.0 mm 0.00 in0.0 mm 0.00 in0.0 mm
09:30 PM 54.5°F12.5°C 48.8°F9.3°C 81% 4.9 mph E7.9 kmh E 7.0 mph11.3 kmh 29.99 in1015.6 mb 0.00 in0.0 mm 0.00 in0.0 mm 0.00 in0.0 mm
09:31 PM 54.4°F12.4°C 48.7°F9.3°C 81% 4.7 mph E7.6 kmh E 7.0 mph11.3 kmh 29.99 in1015.6 mb 0.00 in0.0 mm 0.00 in0.0 mm 0.00 in0.0 mm
09:32 PM 54.4°F12.4°C 48.7°F9.3°C 81% 5.0 mph E8.0 kmh E 7.0 mph11.3 kmh 29.99 in1015.6 mb 0.00 in0.0 mm 0.00 in0.0 mm 0.00 in0.0 mm
09:33 PM 54.4°F12.4°C 48.7°F9.3°C 81% 5.0 mph E8.0 kmh E 7.0 mph11.3 kmh 29.99 in1015.6 mb 0.00 in0.0 mm 0.00 in0.0 mm 0.00 in0.0 mm
09:34 PM 54.5°F12.5°C 48.8°F9.3°C 81% 3.0 mph E4.8 kmh E 3.0 mph4.8 kmh 29.99 in1015.6 mb 0.00 in0.0 mm 0.00 in0.0 mm 0.00 in0.0 mm
09:35 PM 54.5°F12.5°C 48.8°F9.3°C 81% 3.7 mph E6.0 kmh E 6.0 mph9.7 kmh 29.99 in1015.6 mb 0.00 in0.0 mm 0.00 in0.0 mm 0.00 in0.0 mm
09:36 PM 54.5°F12.5°C 48.8°F9.3°C 81% 3.8 mph E6.1 kmh E 6.0 mph9.7 kmh 29.99 in1015.6 mb 0.00 in0.0 mm 0.00 in0.0 mm 0.00 in0.0 mm
09:37 PM 54.5°F12.5°C 48.8°F9.3°C 81% 3.9 mph E6.3 kmh E 7.0 mph11.3 kmh 29.99 in1015.6 mb 0.00 in0.0 mm 0.00 in0.0 mm 0.00 in0.0 mm
09:38 PM 54.4°F12.4°C 48.7°F9.3°C 81% 4.5 mph E7.2 kmh E 7.0 mph11.3 kmh 29.99 in1015.6 mb 0.00 in0.0 mm 0.00 in0.0 mm 0.00 in0.0 mm
09:39 PM 54.5°F12.5°C 48.8°F9.3°C 81% 4.6 mph E7.4 kmh E 7.0 mph11.3 kmh 29.99 in1015.6 mb 0.00 in0.0 mm 0.00 in0.0 mm 0.00 in0.0 mm
09:40 PM 54.4°F12.4°C 48.7°F9.3°C 81% 4.0 mph E6.4 kmh E 6.0 mph9.7 kmh 29.99 in1015.6 mb 0.00 in0.0 mm 0.00 in0.0 mm 0.00 in0.0 mm
09:41 PM 54.4°F12.4°C 48.7°F9.3°C 81% 3.7 mph E6.0 kmh E 6.0 mph9.7 kmh 29.99 in1015.6 mb 0.00 in0.0 mm 0.00 in0.0 mm 0.00 in0.0 mm
09:42 PM 54.4°F12.4°C 48.7°F9.3°C 81% 4.3 mph E6.9 kmh E 7.0 mph11.3 kmh 29.99 in1015.6 mb 0.00 in0.0 mm 0.00 in0.0 mm 0.00 in0.0 mm
09:43 PM 54.5°F12.5°C 48.8°F9.3°C 81% 4.2 mph E6.8 kmh E 7.0 mph11.3 kmh 29.99 in1015.6 mb 0.00 in0.0 mm 0.00 in0.0 mm 0.00 in0.0 mm
09:44 PM 54.5°F12.5°C 48.8°F9.3°C 81% 3.8 mph E6.1 kmh E 7.0 mph11.3 kmh 29.99 in1015.6 mb 0.00 in0.0 mm 0.00 in0.0 mm 0.00 in0.0 mm
09:45 PM 54.5°F12.5°C 48.8°F9.3°C 81% 4.2 mph E6.8 kmh E 7.0 mph11.3 kmh 29.99 in1015.6 mb 0.00 in0.0 mm 0.00 in0.0 mm 0.00 in0.0 mm
09:46 PM 54.5°F12.5°C 48.8°F9.3°C 81% 4.0 mph E6.4 kmh E 7.0 mph11.3 kmh 29.99 in1015.6 mb 0.00 in0.0 mm 0.00 in0.0 mm 0.00 in0.0 mm
09:47 PM 54.5°F12.5°C 48.5°F9.2°C 80% 3.6 mph E5.8 kmh E 7.0 mph11.3 kmh 29.99 in1015.6 mb 0.00 in0.0 mm 0.00 in0.0 mm 0.00 in0.0 mm
09:48 PM 54.5°F12.5°C 48.5°F9.2°C 80% 4.0 mph E6.4 kmh E 7.0 mph11.3 kmh 29.99 in1015.6 mb 0.00 in0.0 mm 0.00 in0.0 mm 0.00 in0.0 mm
09:49 PM 54.5°F12.5°C 48.5°F9.2°C 80% 3.7 mph E6.0 kmh E 7.0 mph11.3 kmh 29.99 in1015.6 mb 0.00 in0.0 mm 0.00 in0.0 mm 0.00 in0.0 mm
09:50 PM 54.6°F12.6°C 48.6°F9.2°C 80% 4.0 mph E6.4 kmh E 6.0 mph9.7 kmh 29.99 in1015.6 mb 0.00 in0.0 mm 0.00 in0.0 mm 0.00 in0.0 mm
09:51 PM 54.5°F12.5°C 48.5°F9.2°C 80% 3.4 mph E5.5 kmh E 5.0 mph8.0 kmh 29.99 in1015.6 mb 0.00 in0.0 mm 0.00 in0.0 mm 0.00 in0.0 mm
09:52 PM 54.5°F12.5°C 48.5°F9.2°C 80% 3.7 mph E6.0 kmh E 7.0 mph11.3 kmh 29.99 in1015.6 mb 0.00 in0.0 mm 0.00 in0.0 mm 0.00 in0.0 mm
09:53 PM 54.5°F12.5°C 48.5°F9.2°C 80% 3.2 mph E5.1 kmh E 7.0 mph11.3 kmh 29.99 in1015.6 mb 0.00 in0.0 mm 0.00 in0.0 mm 0.00 in0.0 mm
09:54 PM 54.6°F12.6°C 48.6°F9.2°C 80% 3.2 mph E5.1 kmh E 5.0 mph8.0 kmh 29.99 in1015.6 mb 0.00 in0.0 mm 0.00 in0.0 mm 0.00 in0.0 mm
09:55 PM 54.5°F12.5°C 48.5°F9.2°C 80% 3.7 mph E6.0 kmh E 5.0 mph8.0 kmh 29.99 in1015.6 mb 0.00 in0.0 mm 0.00 in0.0 mm 0.00 in0.0 mm
09:56 PM 54.5°F12.5°C 48.5°F9.2°C 80% 4.1 mph E6.6 kmh E 6.0 mph9.7 kmh 29.99 in1015.6 mb 0.00 in0.0 mm 0.00 in0.0 mm 0.00 in0.0 mm
09:57 PM 54.5°F12.5°C 48.5°F9.2°C 80% 4.1 mph E6.6 kmh E 6.0 mph9.7 kmh 29.99 in1015.6 mb 0.00 in0.0 mm 0.00 in0.0 mm 0.00 in0.0 mm
09:58 PM 54.5°F12.5°C 48.5°F9.2°C 80% 3.5 mph E5.6 kmh E 5.0 mph8.0 kmh 29.99 in1015.6 mb 0.00 in0.0 mm 0.00 in0.0 mm 0.00 in0.0 mm
09:59 PM 54.5°F12.5°C 48.5°F9.2°C 80% 4.1 mph E6.6 kmh E 5.0 mph8.0 kmh 29.99 in1015.6 mb 0.00 in0.0 mm 0.00 in0.0 mm 0.00 in0.0 mm
10:00 PM 54.5°F12.5°C 48.5°F9.2°C 80% 4.4 mph E7.1 kmh E 6.0 mph9.7 kmh 29.99 in1015.6 mb 0.00 in0.0 mm 0.00 in0.0 mm 0.00 in0.0 mm
10:01 PM 54.5°F12.5°C 48.1°F8.9°C 79% 3.9 mph E6.3 kmh E 6.0 mph9.7 kmh 29.99 in1015.6 mb 0.00 in0.0 mm 0.00 in0.0 mm 0.00 in0.0 mm
10:02 PM 54.5°F12.5°C 48.5°F9.2°C 80% 4.0 mph E6.4 kmh E 6.0 mph9.7 kmh 29.99 in1015.6 mb 0.00 in0.0 mm 0.00 in0.0 mm 0.00 in0.0 mm
10:03 PM 54.4°F12.4°C 48.4°F9.1°C 80% 3.6 mph E5.8 kmh E 6.0 mph9.7 kmh 29.99 in1015.6 mb 0.00 in0.0 mm 0.00 in0.0 mm 0.00 in0.0 mm
10:04 PM 54.5°F12.5°C 48.1°F8.9°C 79% 3.4 mph E5.5 kmh E 5.0 mph8.0 kmh 29.99 in1015.6 mb 0.00 in0.0 mm 0.00 in0.0 mm 0.00 in0.0 mm
10:05 PM 54.5°F12.5°C 48.1°F8.9°C 79% 4.7 mph E7.6 kmh E 7.0 mph11.3 kmh 29.99 in1015.6 mb 0.00 in0.0 mm 0.00 in0.0 mm 0.00 in0.0 mm
10:06 PM 54.4°F12.4°C 48.0°F8.9°C 79% 3.7 mph E6.0 kmh E 7.0 mph11.3 kmh 29.99 in1015.6 mb 0.00 in0.0 mm 0.00 in0.0 mm 0.00 in0.0 mm
10:07 PM 54.4°F12.4°C 48.4°F9.1°C 80% 3.6 mph E5.8 kmh E 6.0 mph9.7 kmh 29.99 in1015.6 mb 0.00 in0.0 mm 0.00 in0.0 mm 0.00 in0.0 mm
10:08 PM 54.4°F12.4°C 48.4°F9.1°C 80% 3.8 mph E6.1 kmh E 5.0 mph8.0 kmh 29.99 in1015.6 mb 0.00 in0.0 mm 0.00 in0.0 mm 0.00 in0.0 mm
10:09 PM 54.3°F12.4°C 48.3°F9.1°C 80% 4.1 mph E6.6 kmh E 5.0 mph8.0 kmh 29.99 in1015.6 mb 0.00 in0.0 mm 0.00 in0.0 mm 0.00 in0.0 mm
10:10 PM 54.4°F12.4°C 48.4°F9.1°C 80% 4.0 mph E6.4 kmh E 5.0 mph8.0 kmh 29.99 in1015.6 mb 0.00 in0.0 mm 0.00 in0.0 mm 0.00 in0.0 mm
10:11 PM 54.3°F12.4°C 47.9°F8.8°C 79% 4.1 mph E6.6 kmh E 5.0 mph8.0 kmh 29.99 in1015.6 mb 0.00 in0.0 mm 0.00 in0.0 mm 0.00 in0.0 mm
10:12 PM 54.3°F12.4°C 48.3°F9.1°C 80% 3.7 mph E6.0 kmh E 5.0 mph8.0 kmh 29.99 in1015.6 mb 0.00 in0.0 mm 0.00 in0.0 mm 0.00 in0.0 mm
10:13 PM 54.3°F12.4°C 48.3°F9.1°C 80% 4.0 mph E6.4 kmh E 5.0 mph8.0 kmh 29.99 in1015.6 mb 0.00 in0.0 mm 0.00 in0.0 mm 0.00 in0.0 mm
10:14 PM 54.2°F12.3°C 48.2°F9.0°C 80% 3.7 mph E6.0 kmh E 5.0 mph8.0 kmh 29.99 in1015.6 mb 0.00 in0.0 mm 0.00 in0.0 mm 0.00 in0.0 mm
10:15 PM 54.2°F12.3°C 48.2°F9.0°C 80% 4.0 mph E6.4 kmh E 5.0 mph8.0 kmh 29.99 in1015.6 mb 0.00 in0.0 mm 0.00 in0.0 mm 0.00 in0.0 mm
10:16 PM 54.2°F12.3°C 48.2°F9.0°C 80% 4.0 mph E6.4 kmh E 6.0 mph9.7 kmh 29.99 in1015.6 mb 0.00 in0.0 mm 0.00 in0.0 mm 0.00 in0.0 mm
10:17 PM 54.2°F12.3°C 48.2°F9.0°C 80% 3.9 mph E6.3 kmh E 6.0 mph9.7 kmh 29.99 in1015.6 mb 0.00 in0.0 mm 0.00 in0.0 mm 0.00 in0.0 mm
10:18 PM 54.1°F12.3°C 48.1°F8.9°C 80% 3.7 mph E6.0 kmh E 5.0 mph8.0 kmh 29.99 in1015.6 mb 0.00 in0.0 mm 0.00 in0.0 mm 0.00 in0.0 mm
10:19 PM 54.1°F12.3°C 48.1°F8.9°C 80% 3.5 mph E5.6 kmh E 5.0 mph8.0 kmh 29.99 in1015.6 mb 0.00 in0.0 mm 0.00 in0.0 mm 0.00 in0.0 mm
10:20 PM 54.1°F12.3°C 48.1°F8.9°C 80% 3.3 mph E5.3 kmh E 5.0 mph8.0 kmh 29.99 in1015.6 mb 0.00 in0.0 mm 0.00 in0.0 mm 0.00 in0.0 mm
10:21 PM 54.0°F12.2°C 48.0°F8.9°C 80% 2.5 mph E4.0 kmh E 5.0 mph8.0 kmh 29.99 in1015.6 mb 0.00 in0.0 mm 0.00 in0.0 mm 0.00 in0.0 mm
10:22 PM 54.0°F12.2°C 48.0°F8.9°C 80% 2.9 mph ENE4.7 kmh ENE 4.0 mph6.4 kmh 29.99 in1015.6 mb 0.00 in0.0 mm 0.00 in0.0 mm 0.00 in0.0 mm
10:23 PM 53.9°F12.2°C 47.9°F8.8°C 80% 2.2 mph ENE3.5 kmh ENE 4.0 mph6.4 kmh 29.99 in1015.6 mb 0.00 in0.0 mm 0.00 in0.0 mm 0.00 in0.0 mm
10:24 PM 53.9°F12.2°C 47.9°F8.8°C 80% 2.1 mph ENE3.4 kmh ENE 3.0 mph4.8 kmh 29.99 in1015.6 mb 0.00 in0.0 mm 0.00 in0.0 mm 0.00 in0.0 mm
10:25 PM 53.9°F12.2°C 47.9°F8.8°C 80% 1.7 mph ENE2.7 kmh ENE 3.0 mph4.8 kmh 29.99 in1015.6 mb 0.00 in0.0 mm 0.00 in0.0 mm 0.00 in0.0 mm
10:26 PM 53.8°F12.1°C 47.8°F8.8°C 80% 1.4 mph ENE2.3 kmh ENE 2.0 mph3.2 kmh 29.99 in1015.6 mb 0.00 in0.0 mm 0.00 in0.0 mm 0.00 in0.0 mm
10:27 PM 53.8°F12.1°C 47.8°F8.8°C 80% 1.2 mph ENE1.9 kmh ENE 2.0 mph3.2 kmh 29.99 in1015.6 mb 0.00 in0.0 mm 0.00 in0.0 mm 0.00 in0.0 mm
10:28 PM 53.8°F12.1°C 47.8°F8.8°C 80% 0.8 mph ENE1.3 kmh ENE 2.0 mph3.2 kmh 29.99 in1015.6 mb 0.00 in0.0 mm 0.00 in0.0 mm 0.00 in0.0 mm
10:29 PM 53.7°F12.1°C 47.7°F8.7°C 80% 0.4 mph ENE0.6 kmh ENE 2.0 mph3.2 kmh 29.99 in1015.6 mb 0.00 in0.0 mm 0.00 in0.0 mm 0.00 in0.0 mm
10:30 PM 53.7°F12.1°C 47.7°F8.7°C 80% 0.3 mph ENE0.5 kmh ENE 1.0 mph1.6 kmh 29.99 in1015.6 mb 0.00 in0.0 mm 0.00 in0.0 mm 0.00 in0.0 mm
10:31 PM 53.6°F12.0°C 47.6°F8.7°C 80% 0.2 mph ENE0.3 kmh ENE 1.0 mph1.6 kmh 29.99 in1015.6 mb 0.00 in0.0 mm 0.00 in0.0 mm 0.00 in0.0 mm
10:32 PM 53.6°F12.0°C 47.6°F8.7°C 80% 0.1 mph ENE0.2 kmh ENE 1.0 mph1.6 kmh 29.99 in1015.6 mb 0.00 in0.0 mm 0.00 in0.0 mm 0.00 in0.0 mm
10:33 PM 53.6°F12.0°C 47.6°F8.7°C 80% 0.4 mph ENE0.6 kmh ENE 1.0 mph1.6 kmh 29.99 in1015.6 mb 0.00 in0.0 mm 0.00 in0.0 mm 0.00 in0.0 mm
10:34 PM 53.5°F11.9°C 47.8°F8.8°C 81% 0.6 mph ENE1.0 kmh ENE 1.0 mph1.6 kmh 29.99 in1015.6 mb 0.00 in0.0 mm 0.00 in0.0 mm 0.00 in0.0 mm
10:35 PM 53.5°F11.9°C 47.8°F8.8°C 81% 1.0 mph ENE1.6 kmh ENE 2.0 mph3.2 kmh 29.99 in1015.6 mb 0.00 in0.0 mm 0.00 in0.0 mm 0.00 in0.0 mm
10:36 PM 53.4°F11.9°C 47.7°F8.7°C 81% 0.4 mph ENE0.6 kmh ENE 2.0 mph3.2 kmh 29.99 in1015.6 mb 0.00 in0.0 mm 0.00 in0.0 mm 0.00 in0.0 mm
10:37 PM 53.4°F11.9°C 47.7°F8.7°C 81% 0.4 mph ENE0.6 kmh ENE 1.0 mph1.6 kmh 29.99 in1015.6 mb 0.00 in0.0 mm 0.00 in0.0 mm 0.00 in0.0 mm
10:38 PM 53.3°F11.8°C 47.6°F8.7°C 81% 0.4 mph ENE0.6 kmh ENE 1.0 mph1.6 kmh 29.99 in1015.6 mb 0.00 in0.0 mm 0.00 in0.0 mm 0.00 in0.0 mm
10:39 PM 53.3°F11.8°C 47.6°F8.7°C 81% 0.2 mph ENE0.3 kmh ENE 1.0 mph1.6 kmh 29.99 in1015.6 mb 0.00 in0.0 mm 0.00 in0.0 mm 0.00 in0.0 mm
10:40 PM 53.3°F11.8°C 47.6°F8.7°C 81% 0.3 mph ENE0.5 kmh ENE 1.0 mph1.6 kmh 29.99 in1015.6 mb 0.00 in0.0 mm 0.00 in0.0 mm 0.00 in0.0 mm
10:41 PM 53.2°F11.8°C 47.5°F8.6°C 81% 0.4 mph ENE0.6 kmh ENE 1.0 mph1.6 kmh 29.99 in1015.6 mb 0.00 in0.0 mm 0.00 in0.0 mm 0.00 in0.0 mm
10:42 PM 53.1°F11.7°C 47.4°F8.6°C 81% 0.8 mph ENE1.3 kmh ENE 2.0 mph3.2 kmh 29.99 in1015.6 mb 0.00 in0.0 mm 0.00 in0.0 mm 0.00 in0.0 mm
10:43 PM 53.1°F11.7°C 47.4°F8.6°C 81% 1.5 mph ENE2.4 kmh ENE 2.0 mph3.2 kmh 29.99 in1015.6 mb 0.00 in0.0 mm 0.00 in0.0 mm 0.00 in0.0 mm
10:44 PM 53.0°F11.7°C 47.3°F8.5°C 81% 1.1 mph ENE1.8 kmh ENE 2.0 mph3.2 kmh 29.99 in1015.6 mb 0.00 in0.0 mm 0.00 in0.0 mm 0.00 in0.0 mm
10:45 PM 52.9°F11.6°C 47.2°F8.4°C 81% 1.5 mph ENE2.4 kmh ENE 2.0 mph3.2 kmh 29.99 in1015.6 mb 0.00 in0.0 mm 0.00 in0.0 mm 0.00 in0.0 mm
10:46 PM 52.8°F11.6°C 47.5°F8.6°C 82% 2.0 mph ENE3.2 kmh ENE 3.0 mph4.8 kmh 29.99 in1015.6 mb 0.00 in0.0 mm 0.00 in0.0 mm 0.00 in0.0 mm
10:47 PM 52.8°F11.6°C 47.5°F8.6°C 82% 1.9 mph ENE3.1 kmh ENE 3.0 mph4.8 kmh 29.99 in1015.6 mb 0.00 in0.0 mm 0.00 in0.0 mm 0.00 in0.0 mm
10:48 PM 52.8°F11.6°C 47.5°F8.6°C 82% 2.0 mph ENE3.2 kmh ENE 3.0 mph4.8 kmh 29.99 in1015.6 mb 0.00 in0.0 mm 0.00 in0.0 mm 0.00 in0.0 mm
10:49 PM 52.7°F11.5°C 47.4°F8.6°C 82% 2.2 mph NE3.5 kmh NE 3.0 mph4.8 kmh 29.99 in1015.6 mb 0.00 in0.0 mm 0.00 in0.0 mm 0.00 in0.0 mm
10:50 PM 52.7°F11.5°C 47.4°F8.6°C 82% 2.0 mph NE3.2 kmh NE 3.0 mph4.8 kmh 29.99 in1015.6 mb 0.00 in0.0 mm 0.00 in0.0 mm 0.00 in0.0 mm
10:51 PM 52.6°F11.4°C 47.3°F8.5°C 82% 1.7 mph NE2.7 kmh NE 2.0 mph3.2 kmh 29.99 in1015.6 mb 0.00 in0.0 mm 0.00 in0.0 mm 0.00 in0.0 mm
10:52 PM 52.5°F11.4°C 47.2°F8.4°C 82% 1.9 mph NE3.1 kmh NE 2.0 mph3.2 kmh 29.99 in1015.6 mb 0.00 in0.0 mm 0.00 in0.0 mm 0.00 in0.0 mm
10:53 PM 52.5°F11.4°C 47.2°F8.4°C 82% 1.9 mph NE3.1 kmh NE 2.0 mph3.2 kmh 29.99 in1015.6 mb 0.00 in0.0 mm 0.00 in0.0 mm 0.00 in0.0 mm
10:54 PM 52.5°F11.4°C 47.2°F8.4°C 82% 1.6 mph NE2.6 kmh NE 2.0 mph3.2 kmh 29.99 in1015.6 mb 0.00 in0.0 mm 0.00 in0.0 mm 0.00 in0.0 mm
10:55 PM 52.4°F11.3°C 47.1°F8.4°C 82% 1.8 mph NE2.9 kmh NE 2.0 mph3.2 kmh 29.99 in1015.6 mb 0.00 in0.0 mm 0.00 in0.0 mm 0.00 in0.0 mm
10:56 PM 52.4°F11.3°C 47.1°F8.4°C 82% 1.6 mph NE2.6 kmh NE 2.0 mph3.2 kmh 29.98 in1015.2 mb 0.00 in0.0 mm 0.00 in0.0 mm 0.00 in0.0 mm
10:57 PM 52.3°F11.3°C 47.0°F8.3°C 82% 2.0 mph NE3.2 kmh NE 2.0 mph3.2 kmh 29.99 in1015.6 mb 0.00 in0.0 mm 0.00 in0.0 mm 0.00 in0.0 mm
10:58 PM 52.3°F11.3°C 47.0°F8.3°C 82% 1.0 mph NE1.6 kmh NE 2.0 mph3.2 kmh 29.99 in1015.6 mb 0.00 in0.0 mm 0.00 in0.0 mm 0.00 in0.0 mm
10:59 PM 52.2°F11.2°C 47.2°F8.4°C 83% 1.0 mph NE1.6 kmh NE 1.0 mph1.6 kmh 29.99 in1015.6 mb 0.00 in0.0 mm 0.00 in0.0 mm 0.00 in0.0 mm
11:00 PM 52.2°F11.2°C 47.2°F8.4°C 83% 1.2 mph NE1.9 kmh NE 2.0 mph3.2 kmh 29.99 in1015.6 mb 0.00 in0.0 mm 0.00 in0.0 mm 0.00 in0.0 mm
11:01 PM 52.1°F11.2°C 47.1°F8.4°C 83% 1.0 mph NE1.6 kmh NE 2.0 mph3.2 kmh 29.99 in1015.6 mb 0.00 in0.0 mm 0.00 in0.0 mm 0.00 in0.0 mm
11:02 PM 52.1°F11.2°C 47.1°F8.4°C 83% 1.2 mph NE1.9 kmh NE 2.0 mph3.2 kmh 29.99 in1015.6 mb 0.00 in0.0 mm 0.00 in0.0 mm 0.00 in0.0 mm
11:03 PM 52.1°F11.2°C 47.1°F8.4°C 83% 1.4 mph NE2.3 kmh NE 2.0 mph3.2 kmh 29.99 in1015.6 mb 0.00 in0.0 mm 0.00 in0.0 mm 0.00 in0.0 mm
11:04 PM 52.0°F11.1°C 47.0°F8.3°C 83% 1.6 mph NE2.6 kmh NE 2.0 mph3.2 kmh 29.98 in1015.2 mb 0.00 in0.0 mm 0.00 in0.0 mm 0.00 in0.0 mm
11:05 PM 52.0°F11.1°C 47.0°F8.3°C 83% 1.7 mph NE2.7 kmh NE 2.0 mph3.2 kmh 29.99 in1015.6 mb 0.00 in0.0 mm 0.00 in0.0 mm 0.00 in0.0 mm
11:06 PM 51.9°F11.1°C 46.9°F8.3°C 83% 1.7 mph NE2.7 kmh NE 2.0 mph3.2 kmh 29.99 in1015.6 mb 0.00 in0.0 mm 0.00 in0.0 mm 0.00 in0.0 mm
11:07 PM 52.0°F11.1°C 47.0°F8.3°C 83% 2.1 mph NE3.4 kmh NE 3.0 mph4.8 kmh 29.98 in1015.2 mb 0.00 in0.0 mm 0.00 in0.0 mm 0.00 in0.0 mm
11:08 PM 51.9°F11.1°C 46.9°F8.3°C 83% 2.8 mph NE4.5 kmh NE 3.0 mph4.8 kmh 29.98 in1015.2 mb 0.00 in0.0 mm 0.00 in0.0 mm 0.00 in0.0 mm
11:09 PM 51.9°F11.1°C 46.9°F8.3°C 83% 3.0 mph NE4.8 kmh NE 4.0 mph6.4 kmh 29.98 in1015.2 mb 0.00 in0.0 mm 0.00 in0.0 mm 0.00 in0.0 mm
11:10 PM 51.9°F11.1°C 46.9°F8.3°C 83% 2.5 mph NE4.0 kmh NE 4.0 mph6.4 kmh 29.98 in1015.2 mb 0.00 in0.0 mm 0.00 in0.0 mm 0.00 in0.0 mm
11:11 PM 51.9°F11.1°C 46.9°F8.3°C 83% 2.7 mph NE4.3 kmh NE 3.0 mph4.8 kmh 29.99 in1015.6 mb 0.00 in0.0 mm 0.00 in0.0 mm 0.00 in0.0 mm
11:12 PM 51.9°F11.1°C 46.9°F8.3°C 83% 2.5 mph NE4.0 kmh NE 4.0 mph6.4 kmh 29.99 in1015.6 mb 0.00 in0.0 mm 0.00 in0.0 mm 0.00 in0.0 mm
11:13 PM 51.9°F11.1°C 46.9°F8.3°C 83% 2.8 mph NE4.5 kmh NE 4.0 mph6.4 kmh 29.98 in1015.2 mb 0.00 in0.0 mm 0.00 in0.0 mm 0.00 in0.0 mm
11:14 PM 51.9°F11.1°C 46.9°F8.3°C 83% 3.2 mph NE5.1 kmh NE 4.0 mph6.4 kmh 29.99 in1015.6 mb 0.00 in0.0 mm 0.00 in0.0 mm 0.00 in0.0 mm
11:15 PM 51.8°F11.0°C 46.8°F8.2°C 83% 3.1 mph NE5.0 kmh NE 4.0 mph6.4 kmh 29.99 in1015.6 mb 0.00 in0.0 mm 0.00 in0.0 mm 0.00 in0.0 mm
11:16 PM 51.9°F11.1°C 46.9°F8.3°C 83% 2.8 mph NE4.5 kmh NE 4.0 mph6.4 kmh 29.98 in1015.2 mb 0.00 in0.0 mm 0.00 in0.0 mm 0.00 in0.0 mm
11:17 PM 51.8°F11.0°C 46.8°F8.2°C 83% 2.7 mph NE4.3 kmh NE 3.0 mph4.8 kmh 29.98 in1015.2 mb 0.00 in0.0 mm 0.00 in0.0 mm 0.00 in0.0 mm
11:18 PM 51.9°F11.1°C 46.9°F8.3°C 83% 2.8 mph NE4.5 kmh NE 3.0 mph4.8 kmh 29.99 in1015.6 mb 0.00 in0.0 mm 0.00 in0.0 mm 0.00 in0.0 mm
11:19 PM 51.8°F11.0°C 46.8°F8.2°C 83% 2.9 mph NE4.7 kmh NE 3.0 mph4.8 kmh 29.99 in1015.6 mb 0.00 in0.0 mm 0.00 in0.0 mm 0.00 in0.0 mm
11:20 PM 51.8°F11.0°C 46.8°F8.2°C 83% 2.3 mph NE3.7 kmh NE 3.0 mph4.8 kmh 29.98 in1015.2 mb 0.00 in0.0 mm 0.00 in0.0 mm 0.00 in0.0 mm
11:21 PM 51.8°F11.0°C 46.8°F8.2°C 83% 2.7 mph NE4.3 kmh NE 3.0 mph4.8 kmh 29.98 in1015.2 mb 0.00 in0.0 mm 0.00 in0.0 mm 0.00 in0.0 mm
11:22 PM 51.8°F11.0°C 46.8°F8.2°C 83% 2.6 mph NE4.2 kmh NE 3.0 mph4.8 kmh 29.98 in1015.2 mb 0.00 in0.0 mm 0.00 in0.0 mm 0.00 in0.0 mm
11:23 PM 51.7°F10.9°C 46.7°F8.2°C 83% 2.7 mph NE4.3 kmh NE 3.0 mph4.8 kmh 29.98 in1015.2 mb 0.00 in0.0 mm 0.00 in0.0 mm 0.00 in0.0 mm
11:24 PM 51.8°F11.0°C 46.8°F8.2°C 83% 2.5 mph NE4.0 kmh NE 3.0 mph4.8 kmh 29.98 in1015.2 mb 0.00 in0.0 mm 0.00 in0.0 mm 0.00 in0.0 mm
11:25 PM 51.7°F10.9°C 46.7°F8.2°C 83% 2.4 mph NE3.9 kmh NE 3.0 mph4.8 kmh 29.98 in1015.2 mb 0.00 in0.0 mm 0.00 in0.0 mm 0.00 in0.0 mm
11:26 PM 51.7°F10.9°C 46.7°F8.2°C 83% 2.6 mph NE4.2 kmh NE 3.0 mph4.8 kmh 29.98 in1015.2 mb 0.00 in0.0 mm 0.00 in0.0 mm 0.00 in0.0 mm
11:27 PM 51.8°F11.0°C 46.8°F8.2°C 83% 2.4 mph NE3.9 kmh NE 3.0 mph4.8 kmh 29.98 in1015.2 mb 0.00 in0.0 mm 0.00 in0.0 mm 0.00 in0.0 mm
11:28 PM 51.7°F10.9°C 46.7°F8.2°C 83% 2.5 mph NE4.0 kmh NE 3.0 mph4.8 kmh 29.98 in1015.2 mb 0.00 in0.0 mm 0.00 in0.0 mm 0.00 in0.0 mm
11:29 PM 51.7°F10.9°C 46.7°F8.2°C 83% 2.4 mph NE3.9 kmh NE 3.0 mph4.8 kmh 29.98 in1015.2 mb 0.00 in0.0 mm 0.00 in0.0 mm 0.00 in0.0 mm
11:30 PM 51.7°F10.9°C 46.7°F8.2°C 83% 2.6 mph NE4.2 kmh NE 3.0 mph4.8 kmh 29.98 in1015.2 mb 0.00 in0.0 mm 0.00 in0.0 mm 0.00 in0.0 mm
11:31 PM 51.8°F11.0°C 46.8°F8.2°C 83% 2.7 mph NE4.3 kmh NE 3.0 mph4.8 kmh 29.98 in1015.2 mb 0.00 in0.0 mm 0.00 in0.0 mm 0.00 in0.0 mm
11:32 PM 51.8°F11.0°C 46.8°F8.2°C 83% 3.0 mph NE4.8 kmh NE 4.0 mph6.4 kmh 29.98 in1015.2 mb 0.00 in0.0 mm 0.00 in0.0 mm 0.00 in0.0 mm
11:33 PM 51.7°F10.9°C 46.7°F8.2°C 83% 3.0 mph NE4.8 kmh NE 4.0 mph6.4 kmh 29.98 in1015.2 mb 0.00 in0.0 mm 0.00 in0.0 mm 0.00 in0.0 mm
11:34 PM 51.8°F11.0°C 46.8°F8.2°C 83% 3.3 mph NE5.3 kmh NE 4.0 mph6.4 kmh 29.98 in1015.2 mb 0.00 in0.0 mm 0.00 in0.0 mm 0.00 in0.0 mm
11:35 PM 51.8°F11.0°C 46.8°F8.2°C 83% 3.0 mph NE4.8 kmh NE 4.0 mph6.4 kmh 29.98 in1015.2 mb 0.00 in0.0 mm 0.00 in0.0 mm 0.00 in0.0 mm
11:36 PM 51.8°F11.0°C 46.8°F8.2°C 83% 2.8 mph NE4.5 kmh NE 4.0 mph6.4 kmh 29.98 in1015.2 mb 0.00 in0.0 mm 0.00 in0.0 mm 0.00 in0.0 mm
11:37 PM 51.7°F10.9°C 47.0°F8.3°C 84% 3.2 mph NE5.1 kmh NE 4.0 mph6.4 kmh 29.98 in1015.2 mb 0.00 in0.0 mm 0.00 in0.0 mm 0.00 in0.0 mm
11:38 PM 51.7°F10.9°C 46.7°F8.2°C 83% 3.2 mph NE5.1 kmh NE 4.0 mph6.4 kmh 29.98 in1015.2 mb 0.00 in0.0 mm 0.00 in0.0 mm 0.00 in0.0 mm
11:39 PM 51.7°F10.9°C 46.7°F8.2°C 83% 2.7 mph NE4.3 kmh NE 4.0 mph6.4 kmh 29.98 in1015.2 mb 0.00 in0.0 mm 0.00 in0.0 mm 0.00 in0.0 mm
11:40 PM 51.7°F10.9°C 47.0°F8.3°C 84% 2.2 mph NE3.5 kmh NE 3.0 mph4.8 kmh 29.98 in1015.2 mb 0.00 in0.0 mm 0.00 in0.0 mm 0.00 in0.0 mm
11:41 PM 51.7°F10.9°C 47.0°F8.3°C 84% 2.3 mph NE3.7 kmh NE 3.0 mph4.8 kmh 29.98 in1015.2 mb 0.00 in0.0 mm 0.00 in0.0 mm 0.00 in0.0 mm
11:42 PM 51.7°F10.9°C 47.0°F8.3°C 84% 2.9 mph NE4.7 kmh NE 3.0 mph4.8 kmh 29.98 in1015.2 mb 0.00 in0.0 mm 0.00 in0.0 mm 0.00 in0.0 mm
11:43 PM 51.7°F10.9°C 47.0°F8.3°C 84% 3.3 mph NE5.3 kmh NE 4.0 mph6.4 kmh 29.98 in1015.2 mb 0.00 in0.0 mm 0.00 in0.0 mm 0.00 in0.0 mm
11:44 PM 51.8°F11.0°C 47.4°F8.6°C 85% 3.3 mph NE5.3 kmh NE 4.0 mph6.4 kmh 29.98 in1015.2 mb 0.00 in0.0 mm 0.00 in0.0 mm 0.00 in0.0 mm
11:45 PM 51.8°F11.0°C 47.4°F8.6°C 85% 3.5 mph NE5.6 kmh NE 4.0 mph6.4 kmh 29.98 in1015.2 mb 0.00 in0.0 mm 0.00 in0.0 mm 0.00 in0.0 mm
11:46 PM 51.8°F11.0°C 47.4°F8.6°C 85% 3.7 mph NE6.0 kmh NE 5.0 mph8.0 kmh 29.98 in1015.2 mb 0.00 in0.0 mm 0.00 in0.0 mm 0.00 in0.0 mm
11:47 PM 51.9°F11.1°C 47.5°F8.6°C 85% 3.5 mph NE5.6 kmh NE 5.0 mph8.0 kmh 29.98 in1015.2 mb 0.00 in0.0 mm 0.00 in0.0 mm 0.00 in0.0 mm
11:48 PM 52.0°F11.1°C 47.6°F8.7°C 85% 4.1 mph NE6.6 kmh NE 5.0 mph8.0 kmh 29.98 in1015.2 mb 0.00 in0.0 mm 0.00 in0.0 mm 0.00 in0.0 mm
11:49 PM 52.0°F11.1°C 47.6°F8.7°C 85% 3.4 mph NE5.5 kmh NE 5.0 mph8.0 kmh 29.98 in1015.2 mb 0.00 in0.0 mm 0.00 in0.0 mm 0.00 in0.0 mm
11:50 PM 52.1°F11.2°C 47.4°F8.6°C 84% 3.7 mph ENE6.0 kmh ENE 5.0 mph8.0 kmh 29.98 in1015.2 mb 0.00 in0.0 mm 0.00 in0.0 mm 0.00 in0.0 mm
11:51 PM 52.1°F11.2°C 47.4°F8.6°C 84% 3.9 mph ENE6.3 kmh ENE 5.0 mph8.0 kmh 29.98 in1015.2 mb 0.00 in0.0 mm 0.00 in0.0 mm 0.00 in0.0 mm
11:52 PM 52.1°F11.2°C 47.4°F8.6°C 84% 4.1 mph ENE6.6 kmh ENE 5.0 mph8.0 kmh 29.98 in1015.2 mb 0.00 in0.0 mm 0.00 in0.0 mm 0.00 in0.0 mm
11:53 PM 52.1°F11.2°C 47.4°F8.6°C 84% 4.0 mph ENE6.4 kmh ENE 5.0 mph8.0 kmh 29.98 in1015.2 mb 0.00 in0.0 mm 0.00 in0.0 mm 0.00 in0.0 mm
11:54 PM 52.2°F11.2°C 47.5°F8.6°C 84% 4.6 mph ENE7.4 kmh ENE 6.0 mph9.7 kmh 29.98 in1015.2 mb 0.00 in0.0 mm 0.00 in0.0 mm 0.00 in0.0 mm
11:55 PM 52.1°F11.2°C 47.4°F8.6°C 84% 4.5 mph ENE7.2 kmh ENE 6.0 mph9.7 kmh 29.98 in1015.2 mb 0.00 in0.0 mm 0.00 in0.0 mm 0.00 in0.0 mm
11:56 PM 52.2°F11.2°C 47.5°F8.6°C 84% 4.8 mph NE7.7 kmh NE 5.0 mph8.0 kmh 29.98 in1015.2 mb 0.00 in0.0 mm 0.00 in0.0 mm 0.00 in0.0 mm
11:57 PM 52.2°F11.2°C 47.5°F8.6°C 84% 4.6 mph ENE7.4 kmh ENE 5.0 mph8.0 kmh 29.98 in1015.2 mb 0.00 in0.0 mm 0.00 in0.0 mm 0.00 in0.0 mm
11:58 PM 52.2°F11.2°C 47.5°F8.6°C 84% 4.4 mph ENE7.1 kmh ENE 5.0 mph8.0 kmh 29.98 in1015.2 mb 0.00 in0.0 mm 0.00 in0.0 mm 0.00 in0.0 mm
11:59 PM 52.1°F11.2°C 47.4°F8.6°C 84% 4.2 mph ENE6.8 kmh ENE 5.0 mph8.0 kmh 29.98 in1015.2 mb 0.00 in0.0 mm 0.00 in0.0 mm 0.00 in0.0 mm